Observation data for Persimmon Gap on 06/24/2019      Previous  Date  Next       Current Mesonet Observations  Soil Data  Daily Summary Page  Observations in Plain Language
KPG1 240500Z 01011KT 29/02 A2986 RMK A01 T02930018  RH  017%=      5-min Rain = 0
KPG1 240501Z 36011KT 29/02 A2987 RMK A01 T02920021  RH  018%=      5-min Rain = 0
KPG1 240502Z 36012KT 29/03 A2987 RMK A01 T02910032  RH  019%=      5-min Rain = 0
KPG1 240503Z 36013KT 29/04 A2987 RMK A01 T02920036  RH  020%=      5-min Rain = 0
KPG1 240504Z 36013KT 29/04 A2987 RMK A01 T02930040  RH  020%=      5-min Rain = 0
KPG1 240505Z 01011KT 29/05 A2987 RMK A01 T02930047  RH  021%=      5-min Rain = 0
KPG1 240506Z 01011KT 29/05 A2986 RMK A01 T02930051  RH  022%=      5-min Rain = 0
KPG1 240507Z 01011KT 29/06 A2986 RMK A01 T02930056  RH  022%=      5-min Rain = 0
KPG1 240508Z 01012KT 29/07 A2986 RMK A01 T02930066  RH  024%=      5-min Rain = 0
KPG1 240509Z 01012KT 29/08 A2986 RMK A01 T02930080  RH  026%=      5-min Rain = 0
KPG1 240510Z 01011KT 29/09 A2986 RMK A01 T02920087  RH  028%=      5-min Rain = 0
KPG1 240511Z 01011KT 29/09 A2986 RMK A01 T02920091  RH  029%=      5-min Rain = 0
KPG1 240512Z 02011KT 29/09 A2986 RMK A01 T02910093  RH  029%=      5-min Rain = 0
KPG1 240513Z 01012KT 29/10 A2986 RMK A01 T02900096  RH  030%=      5-min Rain = 0
KPG1 240514Z 01011KT 29/10 A2986 RMK A01 T02900100  RH  031%=      5-min Rain = 0
KPG1 240515Z 01011KT 29/10 A2986 RMK A01 T02920100  RH  030%=      5-min Rain = 0
KPG1 240516Z 02008KT 29/10 A2986 RMK A01 T02920101  RH  030%=      5-min Rain = 0
KPG1 240517Z 02009KT 29/10 A2986 RMK A01 T02910100  RH  030%=      5-min Rain = 0
KPG1 240518Z 01010KT 29/10 A2986 RMK A01 T02880098  RH  030%=      5-min Rain = 0
KPG1 240519Z 01009KT 29/10 A2986 RMK A01 T02880100  RH  031%=      5-min Rain = 0
KPG1 240520Z 01009KT 29/10 A2986 RMK A01 T02880100  RH  031%=      5-min Rain = 0
KPG1 240521Z 01009KT 29/10 A2986 RMK A01 T02880101  RH  031%=      5-min Rain = 0
KPG1 240522Z 02008KT 29/10 A2986 RMK A01 T02880101  RH  031%=      5-min Rain = 0
KPG1 240523Z 02007KT 29/09 A2986 RMK A01 T02860091  RH  030%=      5-min Rain = 0
KPG1 240524Z 02007KT 28/09 A2986 RMK A01 T02820092  RH  030%=      5-min Rain = 0
KPG1 240525Z 01008KT 28/10 A2986 RMK A01 T02800097  RH  032%=      5-min Rain = 0
KPG1 240526Z 02008KT 28/10 A2986 RMK A01 T02790098  RH  032%=      5-min Rain = 0
KPG1 240527Z 02008KT 28/10 A2986 RMK A01 T02810099  RH  032%=      5-min Rain = 0
KPG1 240528Z 02008KT 28/10 A2986 RMK A01 T02800099  RH  032%=      5-min Rain = 0
KPG1 240529Z 02007KT 28/10 A2986 RMK A01 T02790096  RH  032%=      5-min Rain = 0
KPG1 240530Z 03008KT 27/09 A2986 RMK A01 T02740094  RH  032%=      5-min Rain = 0
KPG1 240531Z 03008KT 27/09 A2986 RMK A01 T02720094  RH  033%=      5-min Rain = 0
KPG1 240532Z 03009KT 27/09 A2986 RMK A01 T02700094  RH  033%=      5-min Rain = 0
KPG1 240533Z 03009KT 27/10 A2986 RMK A01 T02700095  RH  033%=      5-min Rain = 0
KPG1 240534Z 04009KT 27/10 A2986 RMK A01 T02700096  RH  034%=      5-min Rain = 0
KPG1 240535Z 03009KT 27/10 A2986 RMK A01 T02700097  RH  034%=      5-min Rain = 0
KPG1 240536Z 03009KT 27/10 A2986 RMK A01 T02710098  RH  034%=      5-min Rain = 0
KPG1 240537Z 03009KT 27/10 A2986 RMK A01 T02710099  RH  034%=      5-min Rain = 0
KPG1 240538Z 03008KT 27/10 A2986 RMK A01 T02710100  RH  034%=      5-min Rain = 0
KPG1 240539Z 03009KT 27/10 A2986 RMK A01 T02700101  RH  035%=      5-min Rain = 0
KPG1 240540Z 03009KT 27/10 A2986 RMK A01 T02700101  RH  035%=      5-min Rain = 0
KPG1 240541Z 03009KT 27/10 A2986 RMK A01 T02700102  RH  035%=      5-min Rain = 0
KPG1 240542Z 02009KT 27/10 A2986 RMK A01 T02690103  RH  035%=      5-min Rain = 0
KPG1 240543Z 02009KT 27/10 A2986 RMK A01 T02680103  RH  036%=      5-min Rain = 0
KPG1 240544Z 03009KT 27/10 A2987 RMK A01 T02680103  RH  036%=      5-min Rain = 0
KPG1 240545Z 03009KT 27/10 A2986 RMK A01 T02680103  RH  036%=      5-min Rain = 0
KPG1 240546Z 03009KT 27/10 A2987 RMK A01 T02690103  RH  035%=      5-min Rain = 0
KPG1 240547Z 04010KT 27/10 A2986 RMK A01 T02700103  RH  035%=      5-min Rain = 0
KPG1 240548Z 04010KT 27/10 A2987 RMK A01 T02710102  RH  035%=      5-min Rain = 0
KPG1 240549Z 04010KT 27/10 A2987 RMK A01 T02720102  RH  035%=      5-min Rain = 0
KPG1 240550Z 04010KT 27/10 A2987 RMK A01 T02710103  RH  035%=      5-min Rain = 0
KPG1 240551Z 04009KT 27/10 A2987 RMK A01 T02690103  RH  035%=      5-min Rain = 0
KPG1 240552Z 04009KT 27/10 A2987 RMK A01 T02680103  RH  035%=      5-min Rain = 0
KPG1 240553Z 04009KT 27/10 A2987 RMK A01 T02670103  RH  036%=      5-min Rain = 0
KPG1 240554Z 04009KT 27/10 A2987 RMK A01 T02670103  RH  036%=      5-min Rain = 0
KPG1 240555Z 03009KT 27/10 A2987 RMK A01 T02680104  RH  036%=      5-min Rain = 0
KPG1 240556Z 04009KT 27/10 A2987 RMK A01 T02680104  RH  036%=      5-min Rain = 0
KPG1 240557Z 04009KT 27/10 A2986 RMK A01 T02670104  RH  036%=      5-min Rain = 0
KPG1 240558Z 04009KT 27/11 A2986 RMK A01 T02670105  RH  036%=      5-min Rain = 0
KPG1 240559Z 03009KT 27/11 A2986 RMK A01 T02680105  RH  036%=      5-min Rain = 0
KPG1 240600Z 04009KT 27/11 A2987 RMK A01 T02680105  RH  036%=      5-min Rain = 0
KPG1 240601Z 03009KT 27/11 A2987 RMK A01 T02690105  RH  036%=      5-min Rain = 0
KPG1 240602Z 03009KT 27/11 A2987 RMK A01 T02680105  RH  036%=      5-min Rain = 0
KPG1 240603Z 03009KT 27/11 A2987 RMK A01 T02690105  RH  036%=      5-min Rain = 0
KPG1 240604Z 03009KT 27/11 A2987 RMK A01 T02690105  RH  036%=      5-min Rain = 0
KPG1 240605Z 03009KT 27/11 A2987 RMK A01 T02690106  RH  036%=      5-min Rain = 0
KPG1 240606Z 03010KT 27/11 A2987 RMK A01 T02660106  RH  037%=      5-min Rain = 0
KPG1 240607Z 04010KT 26/11 A2987 RMK A01 T02640106  RH  037%=      5-min Rain = 0
KPG1 240608Z 04010KT 26/11 A2987 RMK A01 T02620107  RH  038%=      5-min Rain = 0
KPG1 240609Z 04010KT 26/11 A2987 RMK A01 T02620108  RH  038%=      5-min Rain = 0
KPG1 240610Z 03010KT 26/11 A2987 RMK A01 T02630108  RH  038%=      5-min Rain = 0
KPG1 240611Z 03010KT 26/11 A2987 RMK A01 T02630108  RH  038%=      5-min Rain = 0
KPG1 240612Z 03010KT 27/11 A2987 RMK A01 T02650109  RH  038%=      5-min Rain = 0
KPG1 240613Z 03010KT 27/11 A2987 RMK A01 T02670109  RH  037%=      5-min Rain = 0
KPG1 240614Z 03009KT 27/11 A2987 RMK A01 T02670109  RH  037%=      5-min Rain = 0
KPG1 240615Z 03009KT 27/11 A2987 RMK A01 T02680109  RH  037%=      5-min Rain = 0
KPG1 240616Z 02009KT 27/11 A2986 RMK A01 T02680109  RH  037%=      5-min Rain = 0
KPG1 240617Z 02008KT 27/11 A2986 RMK A01 T02670110  RH  037%=      5-min Rain = 0
KPG1 240618Z 03008KT 27/11 A2986 RMK A01 T02650110  RH  038%=      5-min Rain = 0
KPG1 240619Z 02008KT 26/11 A2986 RMK A01 T02630110  RH  038%=      5-min Rain = 0
KPG1 240620Z 01008KT 26/11 A2986 RMK A01 T02630111  RH  039%=      5-min Rain = 0
KPG1 240621Z 02008KT 26/11 A2986 RMK A01 T02610111  RH  039%=      5-min Rain = 0
KPG1 240622Z 02008KT 26/11 A2986 RMK A01 T02610112  RH  039%=      5-min Rain = 0
KPG1 240623Z 01008KT 26/11 A2986 RMK A01 T02600112  RH  040%=      5-min Rain = 0
KPG1 240624Z 02007KT 26/11 A2986 RMK A01 T02590112  RH  040%=      5-min Rain = 0
KPG1 240625Z 03007KT 26/11 A2986 RMK A01 T02580112  RH  040%=      5-min Rain = 0
KPG1 240626Z 03008KT 26/11 A2986 RMK A01 T02570111  RH  040%=      5-min Rain = 0
KPG1 240627Z 03008KT 26/11 A2986 RMK A01 T02570111  RH  040%=      5-min Rain = 0
KPG1 240628Z 03008KT 26/11 A2986 RMK A01 T02580112  RH  040%=      5-min Rain = 0
KPG1 240629Z 02008KT 26/11 A2986 RMK A01 T02580112  RH  040%=      5-min Rain = 0
KPG1 240630Z 02008KT 26/11 A2986 RMK A01 T02590112  RH  040%=      5-min Rain = 0
KPG1 240631Z 02008KT 26/11 A2986 RMK A01 T02590112  RH  040%=      5-min Rain = 0
KPG1 240632Z 01009KT 26/12 A2986 RMK A01 T02600115  RH  040%=      5-min Rain = 0
KPG1 240633Z 01010KT 26/12 A2986 RMK A01 T02630119  RH  041%=      5-min Rain = 0
KPG1 240634Z 01007KT 27/12 A2986 RMK A01 T02680120  RH  040%=      5-min Rain = 0
KPG1 240635Z 01006KT 27/12 A2986 RMK A01 T02690115  RH  038%=      5-min Rain = 0
KPG1 240636Z 01008KT 27/12 A2986 RMK A01 T02680117  RH  039%=      5-min Rain = 0
KPG1 240637Z 01009KT 27/12 A2986 RMK A01 T02700120  RH  039%=      5-min Rain = 0
KPG1 240638Z 01009KT 27/12 A2986 RMK A01 T02740121  RH  039%=      5-min Rain = 0
KPG1 240639Z 03008KT 28/12 A2986 RMK A01 T02760122  RH  038%=      5-min Rain = 0
KPG1 240640Z 03007KT 28/11 A2986 RMK A01 T02750114  RH  037%=      5-min Rain = 0
KPG1 240641Z 02007KT 27/11 A2986 RMK A01 T02690112  RH  038%=      5-min Rain = 0
KPG1 240642Z 03007KT 26/11 A2986 RMK A01 T02640113  RH  039%=      5-min Rain = 0
KPG1 240643Z 04008KT 26/11 A2986 RMK A01 T02610112  RH  039%=      5-min Rain = 0
KPG1 240644Z 05008KT 26/11 A2986 RMK A01 T02600113  RH  040%=      5-min Rain = 0
KPG1 240645Z 04008KT 26/11 A2986 RMK A01 T02600113  RH  040%=      5-min Rain = 0
KPG1 240646Z 04008KT 26/11 A2986 RMK A01 T02610114  RH  040%=      5-min Rain = 0
KPG1 240647Z 05008KT 26/11 A2986 RMK A01 T02610114  RH  040%=      5-min Rain = 0
KPG1 240648Z 05008KT 26/12 A2986 RMK A01 T02620115  RH  040%=      5-min Rain = 0
KPG1 240649Z 04008KT 26/12 A2986 RMK A01 T02630116  RH  040%=      5-min Rain = 0
KPG1 240650Z 04008KT 26/12 A2986 RMK A01 T02630116  RH  040%=      5-min Rain = 0
KPG1 240651Z 04008KT 26/12 A2986 RMK A01 T02620116  RH  040%=      5-min Rain = 0
KPG1 240652Z 04008KT 26/12 A2986 RMK A01 T02620117  RH  040%=      5-min Rain = 0
KPG1 240653Z 04008KT 26/12 A2986 RMK A01 T02620117  RH  040%=      5-min Rain = 0
KPG1 240654Z 05008KT 26/12 A2986 RMK A01 T02610118  RH  041%=      5-min Rain = 0
KPG1 240655Z 06008KT 26/12 A2986 RMK A01 T02610118  RH  041%=      5-min Rain = 0
KPG1 240656Z 06008KT 26/12 A2986 RMK A01 T02620119  RH  041%=      5-min Rain = 0
KPG1 240657Z 05006KT 26/12 A2986 RMK A01 T02610120  RH  041%=      5-min Rain = 0
KPG1 240658Z 05006KT 26/12 A2986 RMK A01 T02590120  RH  042%=      5-min Rain = 0
KPG1 240659Z 04007KT 26/12 A2986 RMK A01 T02590119  RH  042%=      5-min Rain = 0
KPG1 240700Z 04008KT 26/12 A2986 RMK A01 T02600119  RH  041%=      5-min Rain = 0
KPG1 240701Z 04008KT 26/12 A2986 RMK A01 T02610119  RH  041%=      5-min Rain = 0
KPG1 240702Z 05008KT 26/12 A2986 RMK A01 T02600119  RH  041%=      5-min Rain = 0
KPG1 240703Z 05007KT 26/12 A2986 RMK A01 T02590120  RH  042%=      5-min Rain = 0
KPG1 240704Z 04008KT 26/12 A2986 RMK A01 T02570120  RH  042%=      5-min Rain = 0
KPG1 240705Z 04009KT 26/12 A2986 RMK A01 T02560119  RH  042%=      5-min Rain = 0
KPG1 240706Z 03009KT 26/12 A2986 RMK A01 T02570117  RH  042%=      5-min Rain = 0
KPG1 240707Z 03009KT 26/12 A2986 RMK A01 T02580119  RH  042%=      5-min Rain = 0
KPG1 240708Z 03010KT 26/12 A2986 RMK A01 T02580119  RH  042%=      5-min Rain = 0
KPG1 240709Z 02009KT 26/12 A2986 RMK A01 T02580119  RH  042%=      5-min Rain = 0
KPG1 240710Z 03010KT 26/12 A2986 RMK A01 T02570121  RH  043%=      5-min Rain = 0
KPG1 240711Z 03010KT 26/12 A2986 RMK A01 T02580123  RH  043%=      5-min Rain = 0
KPG1 240712Z 04011KT 26/12 A2986 RMK A01 T02580124  RH  043%=      5-min Rain = 0
KPG1 240713Z 03009KT 26/12 A2986 RMK A01 T02580124  RH  043%=      5-min Rain = 0
KPG1 240714Z 04008KT 26/12 A2986 RMK A01 T02580124  RH  044%=      5-min Rain = 0
KPG1 240715Z 04009KT 26/12 A2986 RMK A01 T02570124  RH  044%=      5-min Rain = 0
KPG1 240716Z 03009KT 26/12 A2986 RMK A01 T02570122  RH  043%=      5-min Rain = 0
KPG1 240717Z 03010KT 26/12 A2986 RMK A01 T02570120  RH  042%=      5-min Rain = 0
KPG1 240718Z 04010KT 26/12 A2986 RMK A01 T02580120  RH  042%=      5-min Rain = 0
KPG1 240719Z 03009KT 26/12 A2986 RMK A01 T02570119  RH  042%=      5-min Rain = 0
KPG1 240720Z 03009KT 26/12 A2986 RMK A01 T02570119  RH  042%=      5-min Rain = 0
KPG1 240721Z 03009KT 26/12 A2986 RMK A01 T02570119  RH  042%=      5-min Rain = 0
KPG1 240722Z 03010KT 26/12 A2986 RMK A01 T02570118  RH  042%=      5-min Rain = 0
KPG1 240723Z 03010KT 26/12 A2986 RMK A01 T02570118  RH  042%=      5-min Rain = 0
KPG1 240724Z 03010KT 26/12 A2986 RMK A01 T02560118  RH  042%=      5-min Rain = 0
KPG1 240725Z 03009KT 26/12 A2986 RMK A01 T02560118  RH  042%=      5-min Rain = 0
KPG1 240726Z 04009KT 26/12 A2986 RMK A01 T02560117  RH  042%=      5-min Rain = 0
KPG1 240727Z 03009KT 26/12 A2986 RMK A01 T02560117  RH  042%=      5-min Rain = 0
KPG1 240728Z 02009KT 26/12 A2987 RMK A01 T02560116  RH  042%=      5-min Rain = 0
KPG1 240729Z 03009KT 26/12 A2987 RMK A01 T02570117  RH  042%=      5-min Rain = 0
KPG1 240730Z 03009KT 26/12 A2987 RMK A01 T02570116  RH  041%=      5-min Rain = 0
KPG1 240731Z 03009KT 26/12 A2987 RMK A01 T02580116  RH  041%=      5-min Rain = 0
KPG1 240732Z 03010KT 26/12 A2987 RMK A01 T02570117  RH  041%=      5-min Rain = 0
KPG1 240733Z 03010KT 26/12 A2987 RMK A01 T02570116  RH  041%=      5-min Rain = 0
KPG1 240734Z 03009KT 26/12 A2987 RMK A01 T02570116  RH  041%=      5-min Rain = 0
KPG1 240735Z 04009KT 26/12 A2987 RMK A01 T02570117  RH  042%=      5-min Rain = 0
KPG1 240736Z 03010KT 26/12 A2987 RMK A01 T02560117  RH  042%=      5-min Rain = 0
KPG1 240737Z 03010KT 26/12 A2987 RMK A01 T02550120  RH  043%=      5-min Rain = 0
KPG1 240738Z 03009KT 25/12 A2987 RMK A01 T02540119  RH  043%=      5-min Rain = 0
KPG1 240739Z 04009KT 25/12 A2987 RMK A01 T02530120  RH  044%=      5-min Rain = 0
KPG1 240740Z 04009KT 25/12 A2987 RMK A01 T02530120  RH  043%=      5-min Rain = 0
KPG1 240741Z 04009KT 25/12 A2987 RMK A01 T02530119  RH  043%=      5-min Rain = 0
KPG1 240742Z 04008KT 25/12 A2987 RMK A01 T02530119  RH  043%=      5-min Rain = 0
KPG1 240743Z 04008KT 25/12 A2987 RMK A01 T02530119  RH  043%=      5-min Rain = 0
KPG1 240744Z 04008KT 25/12 A2987 RMK A01 T02530119  RH  043%=      5-min Rain = 0
KPG1 240745Z 04008KT 25/12 A2987 RMK A01 T02540118  RH  043%=      5-min Rain = 0
KPG1 240746Z 03009KT 26/12 A2986 RMK A01 T02550118  RH  042%=      5-min Rain = 0
KPG1 240747Z 03010KT 26/12 A2986 RMK A01 T02550118  RH  042%=      5-min Rain = 0
KPG1 240748Z 03009KT 26/12 A2987 RMK A01 T02550119  RH  043%=      5-min Rain = 0
KPG1 240749Z 03009KT 25/12 A2987 RMK A01 T02540119  RH  043%=      5-min Rain = 0
KPG1 240750Z 04009KT 25/12 A2987 RMK A01 T02540120  RH  043%=      5-min Rain = 0
KPG1 240751Z 04009KT 25/12 A2987 RMK A01 T02530119  RH  043%=      5-min Rain = 0
KPG1 240752Z 04008KT 25/12 A2987 RMK A01 T02530119  RH  043%=      5-min Rain = 0
KPG1 240753Z 04008KT 25/12 A2987 RMK A01 T02520120  RH  044%=      5-min Rain = 0
KPG1 240754Z 04008KT 25/12 A2987 RMK A01 T02510119  RH  044%=      5-min Rain = 0
KPG1 240755Z 04008KT 25/12 A2987 RMK A01 T02510119  RH  044%=      5-min Rain = 0
KPG1 240756Z 04008KT 25/12 A2987 RMK A01 T02510118  RH  044%=      5-min Rain = 0
KPG1 240757Z 04008KT 25/12 A2987 RMK A01 T02510119  RH  044%=      5-min Rain = 0
KPG1 240758Z 04009KT 25/12 A2987 RMK A01 T02510119  RH  044%=      5-min Rain = 0
KPG1 240759Z 04009KT 25/12 A2987 RMK A01 T02510119  RH  044%=      5-min Rain = 0
KPG1 240800Z 04008KT 25/12 A2987 RMK A01 T02510119  RH  044%=      5-min Rain = 0
KPG1 240801Z 04008KT 25/12 A2987 RMK A01 T02500119  RH  044%=      5-min Rain = 0
KPG1 240802Z 05007KT 25/12 A2987 RMK A01 T02500120  RH  044%=      5-min Rain = 0
KPG1 240803Z 04008KT 25/12 A2987 RMK A01 T02500121  RH  045%=      5-min Rain = 0
KPG1 240804Z 04008KT 25/12 A2987 RMK A01 T02490121  RH  045%=      5-min Rain = 0
KPG1 240805Z 04008KT 25/12 A2987 RMK A01 T02490121  RH  045%=      5-min Rain = 0
KPG1 240806Z 05008KT 25/12 A2987 RMK A01 T02480121  RH  045%=      5-min Rain = 0
KPG1 240807Z 04009KT 25/12 A2987 RMK A01 T02480121  RH  045%=      5-min Rain = 0
KPG1 240808Z 04011KT 25/12 A2987 RMK A01 T02480121  RH  045%=      5-min Rain = 0
KPG1 240809Z 04010KT 25/12 A2987 RMK A01 T02480122  RH  045%=      5-min Rain = 0
KPG1 240810Z 04010KT 25/12 A2987 RMK A01 T02480121  RH  045%=      5-min Rain = 0
KPG1 240811Z 04010KT 25/12 A2987 RMK A01 T02480121  RH  045%=      5-min Rain = 0
KPG1 240812Z 04012KT 25/12 A2987 RMK A01 T02490120  RH  045%=      5-min Rain = 0
KPG1 240813Z 04013KT 25/13 A2987 RMK A01 T02520126  RH  046%=      5-min Rain = 0
KPG1 240814Z 03012KT 26/13 A2987 RMK A01 T02580127  RH  044%=      5-min Rain = 0
KPG1 240815Z 04012KT 26/12 A2987 RMK A01 T02580121  RH  042%=      5-min Rain = 0
KPG1 240816Z 03013KT 26/12 A2987 RMK A01 T02560120  RH  043%=      5-min Rain = 0
KPG1 240817Z 04013KT 26/12 A2988 RMK A01 T02550123  RH  044%=      5-min Rain = 0
KPG1 240818Z 04013KT 26/13 A2988 RMK A01 T02560127  RH  045%=      5-min Rain = 0
KPG1 240819Z 04013KT 26/13 A2987 RMK A01 T02590129  RH  044%=      5-min Rain = 0
KPG1 240820Z 04014KT 26/13 A2987 RMK A01 T02620130  RH  044%=      5-min Rain = 0
KPG1 240821Z 04013KT 26/13 A2987 RMK A01 T02630129  RH  043%=      5-min Rain = 0
KPG1 240822Z 04013KT 26/13 A2987 RMK A01 T02640128  RH  043%=      5-min Rain = 0
KPG1 240823Z 03011KT 26/13 A2987 RMK A01 T02640126  RH  042%=      5-min Rain = 0
KPG1 240824Z 03013KT 26/12 A2987 RMK A01 T02620124  RH  042%=      5-min Rain = 0
KPG1 240825Z 03014KT 26/12 A2987 RMK A01 T02580121  RH  042%=      5-min Rain = 0
KPG1 240826Z 03013KT 26/12 A2987 RMK A01 T02560124  RH  044%=      5-min Rain = 0
KPG1 240827Z 03015KT 26/13 A2987 RMK A01 T02550128  RH  045%=      5-min Rain = 0
KPG1 240828Z 03017KT 26/14 A2987 RMK A01 T02550135  RH  047%=      5-min Rain = 0
KPG1 240829Z 03015KT 26/14 A2987 RMK A01 T02550140  RH  049%=      5-min Rain = 0
KPG1 240830Z 04015KT 26/14 A2987 RMK A01 T02560143  RH  050%=      5-min Rain = 0
KPG1 240831Z 04015KT 26/14 A2988 RMK A01 T02560144  RH  050%=      5-min Rain = 0
KPG1 240832Z 05014KT 26/14 A2987 RMK A01 T02560144  RH  050%=      5-min Rain = 0
KPG1 240833Z 05014KT 26/14 A2988 RMK A01 T02560144  RH  050%=      5-min Rain = 0
KPG1 240834Z 05013KT 26/14 A2988 RMK A01 T02550143  RH  050%=      5-min Rain = 0
KPG1 240835Z 05012KT 25/14 A2988 RMK A01 T02540142  RH  050%=      5-min Rain = 0
KPG1 240836Z 05013KT 25/14 A2988 RMK A01 T02530139  RH  049%=      5-min Rain = 0
KPG1 240837Z 05013KT 25/14 A2988 RMK A01 T02530138  RH  049%=      5-min Rain = 0
KPG1 240838Z 05013KT 25/14 A2988 RMK A01 T02530138  RH  049%=      5-min Rain = 0
KPG1 240839Z 05013KT 25/14 A2988 RMK A01 T02520138  RH  049%=      5-min Rain = 0
KPG1 240840Z 05012KT 25/14 A2988 RMK A01 T02520138  RH  049%=      5-min Rain = 0
KPG1 240841Z 05013KT 25/14 A2988 RMK A01 T02520138  RH  049%=      5-min Rain = 0
KPG1 240842Z 05012KT 25/14 A2987 RMK A01 T02510139  RH  050%=      5-min Rain = 0
KPG1 240843Z 05012KT 25/14 A2987 RMK A01 T02500140  RH  050%=      5-min Rain = 0
KPG1 240844Z 05013KT 25/14 A2987 RMK A01 T02500140  RH  051%=      5-min Rain = 0
KPG1 240845Z 05012KT 25/14 A2988 RMK A01 T02500140  RH  050%=      5-min Rain = 0
KPG1 240846Z 05012KT 25/14 A2988 RMK A01 T02500138  RH  050%=      5-min Rain = 0
KPG1 240847Z 05013KT 25/14 A2988 RMK A01 T02500136  RH  049%=      5-min Rain = 0
KPG1 240848Z 04012KT 25/14 A2988 RMK A01 T02510135  RH  049%=      5-min Rain = 0
KPG1 240849Z 04012KT 25/14 A2988 RMK A01 T02510136  RH  049%=      5-min Rain = 0
KPG1 240850Z 05012KT 25/14 A2988 RMK A01 T02500135  RH  049%=      5-min Rain = 0
KPG1 240851Z 04012KT 25/14 A2988 RMK A01 T02500135  RH  049%=      5-min Rain = 0
KPG1 240852Z 04014KT 25/14 A2988 RMK A01 T02500137  RH  049%=      5-min Rain = 0
KPG1 240853Z 04013KT 25/14 A2988 RMK A01 T02500137  RH  050%=      5-min Rain = 0
KPG1 240854Z 04013KT 25/14 A2988 RMK A01 T02510137  RH  049%=      5-min Rain = 0
KPG1 240855Z 04013KT 25/14 A2988 RMK A01 T02510137  RH  049%=      5-min Rain = 0
KPG1 240856Z 05013KT 25/14 A2988 RMK A01 T02510137  RH  049%=      5-min Rain = 0
KPG1 240857Z 05012KT 25/14 A2988 RMK A01 T02510136  RH  049%=      5-min Rain = 0
KPG1 240858Z 04012KT 25/14 A2988 RMK A01 T02500136  RH  049%=      5-min Rain = 0
KPG1 240859Z 04011KT 25/14 A2988 RMK A01 T02500136  RH  049%=      5-min Rain = 0
KPG1 240900Z 04012KT 25/13 A2988 RMK A01 T02500134  RH  049%=      5-min Rain = 0
KPG1 240901Z 04011KT 25/13 A2988 RMK A01 T02500132  RH  048%=      5-min Rain = 0
KPG1 240902Z 04012KT 25/13 A2988 RMK A01 T02500131  RH  048%=      5-min Rain = 0
KPG1 240903Z 04011KT 25/13 A2988 RMK A01 T02500133  RH  048%=      5-min Rain = 0
KPG1 240904Z 04012KT 25/13 A2988 RMK A01 T02490132  RH  048%=      5-min Rain = 0
KPG1 240905Z 04012KT 25/13 A2988 RMK A01 T02490132  RH  048%=      5-min Rain = 0
KPG1 240906Z 04012KT 25/13 A2988 RMK A01 T02490133  RH  048%=      5-min Rain = 0
KPG1 240907Z 05011KT 25/13 A2988 RMK A01 T02490133  RH  048%=      5-min Rain = 0
KPG1 240908Z 04011KT 25/13 A2988 RMK A01 T02480133  RH  049%=      5-min Rain = 0
KPG1 240909Z 04011KT 25/13 A2988 RMK A01 T02480133  RH  049%=      5-min Rain = 0
KPG1 240910Z 04011KT 25/13 A2988 RMK A01 T02470134  RH  049%=      5-min Rain = 0
KPG1 240911Z 04010KT 25/13 A2988 RMK A01 T02460134  RH  050%=      5-min Rain = 0
KPG1 240912Z 03009KT 25/13 A2988 RMK A01 T02450133  RH  050%=      5-min Rain = 0
KPG1 240913Z 04010KT 24/13 A2988 RMK A01 T02430132  RH  050%=      5-min Rain = 0
KPG1 240914Z 03010KT 24/13 A2988 RMK A01 T02410132  RH  050%=      5-min Rain = 0
KPG1 240915Z 03010KT 24/13 A2988 RMK A01 T02400132  RH  051%=      5-min Rain = 0
KPG1 240916Z 03010KT 24/13 A2988 RMK A01 T02400133  RH  051%=      5-min Rain = 0
KPG1 240917Z 02010KT 24/13 A2988 RMK A01 T02400133  RH  051%=      5-min Rain = 0
KPG1 240918Z 02011KT 24/13 A2988 RMK A01 T02400132  RH  051%=      5-min Rain = 0
KPG1 240919Z 02011KT 24/13 A2988 RMK A01 T02410132  RH  050%=      5-min Rain = 0
KPG1 240920Z 02011KT 24/13 A2988 RMK A01 T02420132  RH  050%=      5-min Rain = 0
KPG1 240921Z 02011KT 24/13 A2988 RMK A01 T02430132  RH  050%=      5-min Rain = 0
KPG1 240922Z 02011KT 24/13 A2988 RMK A01 T02430131  RH  050%=      5-min Rain = 0
KPG1 240923Z 02011KT 24/13 A2988 RMK A01 T02440131  RH  049%=      5-min Rain = 0
KPG1 240924Z 02011KT 24/13 A2988 RMK A01 T02440130  RH  049%=      5-min Rain = 0
KPG1 240925Z 03011KT 24/13 A2988 RMK A01 T02440130  RH  049%=      5-min Rain = 0
KPG1 240926Z 03011KT 24/13 A2988 RMK A01 T02440130  RH  049%=      5-min Rain = 0
KPG1 240927Z 03011KT 24/13 A2988 RMK A01 T02430130  RH  049%=      5-min Rain = 0
KPG1 240928Z 03011KT 24/13 A2988 RMK A01 T02420130  RH  049%=      5-min Rain = 0
KPG1 240929Z 03011KT 24/13 A2988 RMK A01 T02410129  RH  049%=      5-min Rain = 0
KPG1 240930Z 02010KT 24/13 A2988 RMK A01 T02420130  RH  050%=      5-min Rain = 0
KPG1 240931Z 02009KT 24/13 A2988 RMK A01 T02420129  RH  049%=      5-min Rain = 0
KPG1 240932Z 02010KT 24/13 A2988 RMK A01 T02420130  RH  049%=      5-min Rain = 0
KPG1 240933Z 02010KT 24/13 A2988 RMK A01 T02430129  RH  049%=      5-min Rain = 0
KPG1 240934Z 03011KT 24/13 A2988 RMK A01 T02440129  RH  049%=      5-min Rain = 0
KPG1 240935Z 03011KT 25/13 A2988 RMK A01 T02450130  RH  049%=      5-min Rain = 0
KPG1 240936Z 03011KT 25/13 A2988 RMK A01 T02450131  RH  049%=      5-min Rain = 0
KPG1 240937Z 03010KT 24/13 A2988 RMK A01 T02440132  RH  050%=      5-min Rain = 0
KPG1 240938Z 03009KT 24/13 A2988 RMK A01 T02430132  RH  050%=      5-min Rain = 0
KPG1 240939Z 04009KT 24/13 A2988 RMK A01 T02410133  RH  051%=      5-min Rain = 0
KPG1 240940Z 03009KT 24/13 A2988 RMK A01 T02400134  RH  051%=      5-min Rain = 0
KPG1 240941Z 03009KT 24/14 A2988 RMK A01 T02400135  RH  052%=      5-min Rain = 0
KPG1 240942Z 04009KT 24/14 A2988 RMK A01 T02400136  RH  052%=      5-min Rain = 0
KPG1 240943Z 04010KT 24/14 A2988 RMK A01 T02400137  RH  052%=      5-min Rain = 0
KPG1 240944Z 03009KT 24/14 A2988 RMK A01 T02410138  RH  053%=      5-min Rain = 0
KPG1 240945Z 03010KT 24/14 A2988 RMK A01 T02410138  RH  053%=      5-min Rain = 0
KPG1 240946Z 03009KT 24/14 A2988 RMK A01 T02400138  RH  053%=      5-min Rain = 0
KPG1 240947Z 03009KT 24/14 A2988 RMK A01 T02400137  RH  053%=      5-min Rain = 0
KPG1 240948Z 03009KT 24/14 A2988 RMK A01 T02410137  RH  052%=      5-min Rain = 0
KPG1 240949Z 03010KT 24/14 A2988 RMK A01 T02410136  RH  052%=      5-min Rain = 0
KPG1 240950Z 03009KT 24/14 A2988 RMK A01 T02410137  RH  052%=      5-min Rain = 0
KPG1 240951Z 03010KT 24/14 A2988 RMK A01 T02410135  RH  052%=      5-min Rain = 0
KPG1 240952Z 03009KT 24/14 A2988 RMK A01 T02440136  RH  051%=      5-min Rain = 0
KPG1 240953Z 03009KT 24/14 A2988 RMK A01 T02440136  RH  051%=      5-min Rain = 0
KPG1 240954Z 02009KT 24/14 A2988 RMK A01 T02430135  RH  051%=      5-min Rain = 0
KPG1 240955Z 02007KT 24/14 A2988 RMK A01 T02440135  RH  050%=      5-min Rain = 0
KPG1 240956Z 03006KT 25/14 A2988 RMK A01 T02450135  RH  050%=      5-min Rain = 0
KPG1 240957Z 03005KT 25/14 A2988 RMK A01 T02450135  RH  050%=      5-min Rain = 0
KPG1 240958Z 04004KT 25/13 A2989 RMK A01 T02450134  RH  050%=      5-min Rain = 0
KPG1 240959Z 06003KT 25/14 A2989 RMK A01 T02450136  RH  051%=      5-min Rain = 0
KPG1 241000Z 10002KT 24/14 A2989 RMK A01 T02440136  RH  051%=      5-min Rain = 0
KPG1 241001Z 15002KT 24/14 A2989 RMK A01 T02430136  RH  051%=      5-min Rain = 0
KPG1 241002Z 23003KT 24/14 A2989 RMK A01 T02420137  RH  052%=      5-min Rain = 0
KPG1 241003Z 27007KT 24/14 A2989 RMK A01 T02400140  RH  054%=      5-min Rain = 0
KPG1 241004Z 28008KT 24/14 A2989 RMK A01 T02350139  RH  055%=      5-min Rain = 0
KPG1 241005Z 28003KT 23/14 A2989 RMK A01 T02320138  RH  055%=      5-min Rain = 0
KPG1 241006Z 30004KT 23/14 A2989 RMK A01 T02340139  RH  055%=      5-min Rain = 0
KPG1 241007Z 31005KT 24/14 A2989 RMK A01 T02350138  RH  054%=      5-min Rain = 0
KPG1 241008Z 30005KT 24/14 A2989 RMK A01 T02360138  RH  054%=      5-min Rain = 0
KPG1 241009Z 30003KT 24/14 A2989 RMK A01 T02360139  RH  054%=      5-min Rain = 0
KPG1 241010Z 31001KT 24/14 A2989 RMK A01 T02370140  RH  054%=      5-min Rain = 0
KPG1 241011Z 14003KT 24/14 A2989 RMK A01 T02370140  RH  055%=      5-min Rain = 0
KPG1 241012Z 17004KT 24/14 A2989 RMK A01 T02360140  RH  055%=      5-min Rain = 0
KPG1 241013Z 17003KT 23/14 A2989 RMK A01 T02340140  RH  055%=      5-min Rain = 0
KPG1 241014Z 20002KT 23/14 A2989 RMK A01 T02320139  RH  056%=      5-min Rain = 0
KPG1 241015Z 28004KT 23/14 A2989 RMK A01 T02310139  RH  056%=      5-min Rain = 0
KPG1 241016Z 29004KT 23/14 A2989 RMK A01 T02310140  RH  056%=      5-min Rain = 0
KPG1 241017Z 29004KT 23/14 A2989 RMK A01 T02320140  RH  056%=      5-min Rain = 0
KPG1 241018Z 28003KT 23/14 A2989 RMK A01 T02330140  RH  056%=      5-min Rain = 0
KPG1 241019Z 26002KT 23/14 A299 RMK A01 T02330140  RH  056%=      5-min Rain = 0
KPG1 241020Z 19003KT 23/14 A299 RMK A01 T02310139  RH  056%=      5-min Rain = 0
KPG1 241021Z 19004KT 23/14 A299 RMK A01 T02300139  RH  056%=      5-min Rain = 0
KPG1 241022Z 21003KT 23/14 A299 RMK A01 T02290138  RH  057%=      5-min Rain = 0
KPG1 241023Z 20004KT 23/14 A299 RMK A01 T02280138  RH  057%=      5-min Rain = 0
KPG1 241024Z 22004KT 23/14 A299 RMK A01 T02270137  RH  057%=      5-min Rain = 0
KPG1 241025Z 23005KT 23/14 A299 RMK A01 T02260137  RH  057%=      5-min Rain = 0
KPG1 241026Z 23005KT 22/14 A299 RMK A01 T02240137  RH  058%=      5-min Rain = 0
KPG1 241027Z 23005KT 22/14 A299 RMK A01 T02240137  RH  058%=      5-min Rain = 0
KPG1 241028Z 24005KT 22/14 A299 RMK A01 T02230138  RH  059%=      5-min Rain = 0
KPG1 241029Z 25004KT 22/14 A299 RMK A01 T02220139  RH  059%=      5-min Rain = 0
KPG1 241030Z 25004KT 22/14 A299 RMK A01 T02200139  RH  060%=      5-min Rain = 0
KPG1 241031Z 24004KT 22/14 A299 RMK A01 T02190139  RH  061%=      5-min Rain = 0
KPG1 241032Z 24004KT 22/14 A299 RMK A01 T02180140  RH  061%=      5-min Rain = 0
KPG1 241033Z 23005KT 22/14 A299 RMK A01 T02170139  RH  061%=      5-min Rain = 0
KPG1 241034Z 24004KT 22/14 A299 RMK A01 T02170139  RH  061%=      5-min Rain = 0
KPG1 241035Z 24003KT 22/14 A299 RMK A01 T02180139  RH  061%=      5-min Rain = 0
KPG1 241036Z 24003KT 22/14 A299 RMK A01 T02190140  RH  061%=      5-min Rain = 0
KPG1 241037Z 24003KT 22/14 A299 RMK A01 T02220141  RH  060%=      5-min Rain = 0
KPG1 241038Z 26003KT 22/14 A299 RMK A01 T02220141  RH  060%=      5-min Rain = 0
KPG1 241039Z 26004KT 22/14 A299 RMK A01 T02230140  RH  060%=      5-min Rain = 0
KPG1 241040Z 25005KT 22/14 A299 RMK A01 T02220141  RH  060%=      5-min Rain = 0
KPG1 241041Z 25005KT 22/14 A299 RMK A01 T02230141  RH  060%=      5-min Rain = 0
KPG1 241042Z 26005KT 22/14 A299 RMK A01 T02240140  RH  059%=      5-min Rain = 0
KPG1 241043Z 27005KT 22/14 A299 RMK A01 T02240141  RH  059%=      5-min Rain = 0
KPG1 241044Z 27005KT 22/14 A299 RMK A01 T02240141  RH  059%=      5-min Rain = 0
KPG1 241045Z 27005KT 22/14 A299 RMK A01 T02240142  RH  059%=      5-min Rain = 0
KPG1 241046Z 26005KT 23/14 A299 RMK A01 T02250142  RH  059%=      5-min Rain = 0
KPG1 241047Z 26005KT 23/14 A299 RMK A01 T02260143  RH  059%=      5-min Rain = 0
KPG1 241048Z 26005KT 23/14 A299 RMK A01 T02260143  RH  059%=      5-min Rain = 0
KPG1 241049Z 26005KT 23/14 A299 RMK A01 T02270143  RH  059%=      5-min Rain = 0
KPG1 241050Z 26005KT 23/14 A299 RMK A01 T02260144  RH  060%=      5-min Rain = 0
KPG1 241051Z 26005KT 23/14 A299 RMK A01 T02260144  RH  060%=      5-min Rain = 0
KPG1 241052Z 26005KT 23/14 A299 RMK A01 T02260143  RH  060%=      5-min Rain = 0
KPG1 241053Z 26005KT 23/14 A299 RMK A01 T02270144  RH  059%=      5-min Rain = 0
KPG1 241054Z 27006KT 23/14 A299 RMK A01 T02260144  RH  060%=      5-min Rain = 0
KPG1 241055Z 28006KT 23/14 A299 RMK A01 T02260144  RH  060%=      5-min Rain = 0
KPG1 241056Z 28006KT 23/15 A299 RMK A01 T02260145  RH  060%=      5-min Rain = 0
KPG1 241057Z 28007KT 23/15 A2991 RMK A01 T02270145  RH  060%=      5-min Rain = 0
KPG1 241058Z 27007KT 23/15 A2991 RMK A01 T02270145  RH  060%=      5-min Rain = 0
KPG1 241059Z 28007KT 23/14 A2991 RMK A01 T02280144  RH  059%=      5-min Rain = 0
KPG1 241100Z 28007KT 23/15 A299 RMK A01 T02300145  RH  059%=      5-min Rain = 0
KPG1 241101Z 29006KT 23/15 A299 RMK A01 T02310146  RH  059%=      5-min Rain = 0
KPG1 241102Z 29004KT 23/15 A299 RMK A01 T02310146  RH  059%=      5-min Rain = 0
KPG1 241103Z 30005KT 23/15 A299 RMK A01 T02320146  RH  059%=      5-min Rain = 0
KPG1 241104Z 29003KT 23/15 A299 RMK A01 T02340147  RH  058%=      5-min Rain = 0
KPG1 241105Z 28003KT 24/15 A299 RMK A01 T02360147  RH  057%=      5-min Rain = 0
KPG1 241106Z 26003KT 24/15 A299 RMK A01 T02380147  RH  057%=      5-min Rain = 0
KPG1 241107Z 21003KT 24/15 A299 RMK A01 T02380147  RH  056%=      5-min Rain = 0
KPG1 241108Z 21004KT 24/15 A299 RMK A01 T02390147  RH  056%=      5-min Rain = 0
KPG1 241109Z 22005KT 24/15 A299 RMK A01 T02380147  RH  057%=      5-min Rain = 0
KPG1 241110Z 22005KT 24/15 A299 RMK A01 T02370147  RH  057%=      5-min Rain = 0
KPG1 241111Z 21004KT 24/15 A299 RMK A01 T02370147  RH  057%=      5-min Rain = 0
KPG1 241112Z 21005KT 24/15 A299 RMK A01 T02360147  RH  057%=      5-min Rain = 0
KPG1 241113Z 22005KT 24/15 A299 RMK A01 T02350147  RH  058%=      5-min Rain = 0
KPG1 241114Z 23004KT 23/15 A299 RMK A01 T02340147  RH  058%=      5-min Rain = 0
KPG1 241115Z 23005KT 23/15 A299 RMK A01 T02340146  RH  058%=      5-min Rain = 0
KPG1 241116Z 24005KT 23/15 A299 RMK A01 T02330147  RH  058%=      5-min Rain = 0
KPG1 241117Z 24006KT 23/15 A299 RMK A01 T02310147  RH  059%=      5-min Rain = 0
KPG1 241118Z 25005KT 23/15 A299 RMK A01 T02290147  RH  060%=      5-min Rain = 0
KPG1 241119Z 25005KT 23/15 A299 RMK A01 T02270147  RH  061%=      5-min Rain = 0
KPG1 241120Z 25005KT 23/15 A299 RMK A01 T02250147  RH  061%=      5-min Rain = 0
KPG1 241121Z 25005KT 22/15 A299 RMK A01 T02230147  RH  062%=      5-min Rain = 0
KPG1 241122Z 25003KT 22/15 A299 RMK A01 T02220147  RH  062%=      5-min Rain = 0
KPG1 241123Z 26004KT 22/15 A299 RMK A01 T02210147  RH  063%=      5-min Rain = 0
KPG1 241124Z 25004KT 22/15 A299 RMK A01 T02210147  RH  063%=      5-min Rain = 0
KPG1 241125Z 25005KT 22/15 A299 RMK A01 T02210148  RH  063%=      5-min Rain = 0
KPG1 241126Z 24005KT 22/15 A299 RMK A01 T02210148  RH  063%=      5-min Rain = 0
KPG1 241127Z 25006KT 22/15 A299 RMK A01 T02210147  RH  063%=      5-min Rain = 0
KPG1 241128Z 28007KT 22/15 A299 RMK A01 T02230148  RH  062%=      5-min Rain = 0
KPG1 241129Z 28007KT 22/15 A299 RMK A01 T02240145  RH  061%=      5-min Rain = 0
KPG1 241130Z 28008KT 23/15 A299 RMK A01 T02270145  RH  060%=      5-min Rain = 0
KPG1 241131Z 29009KT 23/15 A2991 RMK A01 T02310145  RH  058%=      5-min Rain = 0
KPG1 241132Z 28007KT 23/15 A2991 RMK A01 T02340145  RH  057%=      5-min Rain = 0
KPG1 241133Z 28006KT 24/15 A2991 RMK A01 T02370145  RH  056%=      5-min Rain = 0
KPG1 241134Z 28003KT 24/15 A2991 RMK A01 T02390145  RH  056%=      5-min Rain = 0
KPG1 241135Z 28003KT 24/15 A2991 RMK A01 T02390146  RH  056%=      5-min Rain = 0
KPG1 241136Z 25003KT 24/15 A2991 RMK A01 T02390147  RH  056%=      5-min Rain = 0
KPG1 241137Z 24004KT 24/15 A2991 RMK A01 T02370147  RH  057%=      5-min Rain = 0
KPG1 241138Z 24004KT 24/15 A2991 RMK A01 T02350147  RH  057%=      5-min Rain = 0
KPG1 241139Z 25006KT 23/15 A2991 RMK A01 T02340146  RH  057%=      5-min Rain = 0
KPG1 241140Z 25005KT 23/14 A2991 RMK A01 T02340144  RH  057%=      5-min Rain = 0
KPG1 241141Z 24005KT 24/15 A2991 RMK A01 T02350146  RH  057%=      5-min Rain = 0
KPG1 241142Z 23004KT 23/15 A2991 RMK A01 T02340148  RH  059%=      5-min Rain = 0
KPG1 241143Z 22003KT 23/15 A2991 RMK A01 T02300149  RH  060%=      5-min Rain = 0
KPG1 241144Z 23004KT 23/15 A2991 RMK A01 T02270148  RH  061%=      5-min Rain = 0
KPG1 241145Z 23005KT 23/15 A2991 RMK A01 T02250148  RH  062%=      5-min Rain = 0
KPG1 241146Z 22005KT 22/15 A2991 RMK A01 T02240148  RH  062%=      5-min Rain = 0
KPG1 241147Z 21004KT 22/15 A2991 RMK A01 T02240148  RH  062%=      5-min Rain = 0
KPG1 241148Z 20005KT 23/15 A2991 RMK A01 T02250148  RH  062%=      5-min Rain = 0
KPG1 241149Z 19006KT 23/15 A2991 RMK A01 T02250148  RH  062%=      5-min Rain = 0
KPG1 241150Z 18006KT 23/15 A2991 RMK A01 T02250149  RH  062%=      5-min Rain = 0
KPG1 241151Z 19006KT 23/15 A2991 RMK A01 T02250148  RH  062%=      5-min Rain = 0
KPG1 241152Z 22005KT 23/15 A2991 RMK A01 T02290148  RH  060%=      5-min Rain = 0
KPG1 241153Z 21005KT 23/15 A2991 RMK A01 T02320149  RH  059%=      5-min Rain = 0
KPG1 241154Z 21006KT 23/15 A2991 RMK A01 T02330149  RH  059%=      5-min Rain = 0
KPG1 241155Z 20005KT 23/15 A2992 RMK A01 T02340150  RH  059%=      5-min Rain = 0
KPG1 241156Z 19004KT 23/15 A2992 RMK A01 T02330150  RH  060%=      5-min Rain = 0
KPG1 241157Z 20004KT 23/15 A2992 RMK A01 T02300150  RH  061%=      5-min Rain = 0
KPG1 241158Z 19005KT 23/15 A2992 RMK A01 T02270150  RH  061%=      5-min Rain = 0
KPG1 241159Z 17005KT 23/15 A2992 RMK A01 T02250150  RH  063%=      5-min Rain = 0
KPG1 241200Z 16005KT 22/15 A2992 RMK A01 T02220150  RH  064%=      5-min Rain = 0
KPG1 241201Z 17005KT 22/15 A2992 RMK A01 T02190151  RH  065%=      5-min Rain = 0
KPG1 241202Z 18003KT 22/15 A2992 RMK A01 T02170150  RH  066%=      5-min Rain = 0
KPG1 241203Z 17003KT 22/15 A2992 RMK A01 T02170150  RH  066%=      5-min Rain = 0
KPG1 241204Z 19003KT 22/15 A2992 RMK A01 T02180150  RH  065%=      5-min Rain = 0
KPG1 241205Z 17003KT 22/15 A2992 RMK A01 T02190149  RH  064%=      5-min Rain = 0
KPG1 241206Z 17003KT 22/15 A2992 RMK A01 T02210150  RH  064%=      5-min Rain = 0
KPG1 241207Z 18003KT 22/15 A2992 RMK A01 T02210151  RH  064%=      5-min Rain = 0
KPG1 241208Z 18003KT 22/15 A2992 RMK A01 T02210150  RH  064%=      5-min Rain = 0
KPG1 241209Z 18003KT 22/15 A2992 RMK A01 T02210151  RH  065%=      5-min Rain = 0
KPG1 241210Z 19003KT 22/15 A2992 RMK A01 T02190151  RH  065%=      5-min Rain = 0
KPG1 241211Z 19003KT 22/15 A2992 RMK A01 T02180150  RH  066%=      5-min Rain = 0
KPG1 241212Z 19003KT 22/15 A2992 RMK A01 T02160151  RH  066%=      5-min Rain = 0
KPG1 241213Z 19003KT 21/15 A2992 RMK A01 T02130150  RH  067%=      5-min Rain = 0
KPG1 241214Z 19004KT 21/15 A2992 RMK A01 T02120150  RH  068%=      5-min Rain = 0
KPG1 241215Z 19003KT 21/15 A2992 RMK A01 T02110150  RH  068%=      5-min Rain = 0
KPG1 241216Z 19003KT 21/15 A2992 RMK A01 T02110151  RH  068%=      5-min Rain = 0
KPG1 241217Z 19004KT 21/15 A2992 RMK A01 T02100150  RH  068%=      5-min Rain = 0
KPG1 241218Z 19004KT 21/15 A2992 RMK A01 T02110150  RH  068%=      5-min Rain = 0
KPG1 241219Z 21004KT 21/15 A2993 RMK A01 T02100151  RH  069%=      5-min Rain = 0
KPG1 241220Z 22004KT 21/15 A2993 RMK A01 T02080151  RH  070%=      5-min Rain = 0
KPG1 241221Z 21004KT 21/15 A2993 RMK A01 T02060151  RH  071%=      5-min Rain = 0
KPG1 241222Z 18005KT 20/15 A2993 RMK A01 T02030150  RH  072%=      5-min Rain = 0
KPG1 241223Z 18005KT 20/15 A2993 RMK A01 T02010150  RH  072%=      5-min Rain = 0
KPG1 241224Z 18004KT 20/15 A2993 RMK A01 T02010150  RH  073%=      5-min Rain = 0
KPG1 241225Z 19004KT 20/15 A2993 RMK A01 T02000150  RH  073%=      5-min Rain = 0
KPG1 241226Z 21003KT 20/15 A2993 RMK A01 T02000151  RH  073%=      5-min Rain = 0
KPG1 241227Z 22004KT 20/15 A2993 RMK A01 T01990151  RH  074%=      5-min Rain = 0
KPG1 241228Z 22005KT 20/15 A2993 RMK A01 T01980150  RH  074%=      5-min Rain = 0
KPG1 241229Z 21005KT 20/15 A2993 RMK A01 T01970149  RH  074%=      5-min Rain = 0
KPG1 241230Z 21004KT 20/15 A2993 RMK A01 T01970149  RH  074%=      5-min Rain = 0
KPG1 241231Z 22004KT 20/15 A2993 RMK A01 T01970149  RH  074%=      5-min Rain = 0
KPG1 241232Z 23004KT 20/15 A2993 RMK A01 T01960149  RH  074%=      5-min Rain = 0
KPG1 241233Z 21004KT 20/15 A2993 RMK A01 T01960149  RH  074%=      5-min Rain = 0
KPG1 241234Z 21003KT 20/15 A2993 RMK A01 T01950149  RH  074%=      5-min Rain = 0
KPG1 241235Z 21003KT 20/15 A2993 RMK A01 T01950150  RH  075%=      5-min Rain = 0
KPG1 241236Z 22003KT 20/15 A2993 RMK A01 T01950149  RH  075%=      5-min Rain = 0
KPG1 241237Z 23003KT 20/15 A2993 RMK A01 T01950149  RH  075%=      5-min Rain = 0
KPG1 241238Z 22003KT 19/15 A2993 RMK A01 T01940149  RH  075%=      5-min Rain = 0
KPG1 241239Z 22003KT 20/15 A2993 RMK A01 T01950149  RH  075%=      5-min Rain = 0
KPG1 241240Z 23003KT 20/15 A2993 RMK A01 T01960150  RH  075%=      5-min Rain = 0
KPG1 241241Z 23003KT 20/15 A2993 RMK A01 T01970149  RH  074%=      5-min Rain = 0
KPG1 241242Z 23003KT 20/15 A2993 RMK A01 T01980149  RH  074%=      5-min Rain = 0
KPG1 241243Z 24003KT 20/15 A2993 RMK A01 T01990150  RH  073%=      5-min Rain = 0
KPG1 241244Z 24004KT 20/15 A2993 RMK A01 T02000150  RH  073%=      5-min Rain = 0
KPG1 241245Z 23004KT 20/15 A2993 RMK A01 T02010150  RH  072%=      5-min Rain = 0
KPG1 241246Z 23003KT 20/15 A2993 RMK A01 T02020150  RH  072%=      5-min Rain = 0
KPG1 241247Z 22003KT 20/15 A2993 RMK A01 T02030150  RH  072%=      5-min Rain = 0
KPG1 241248Z 20003KT 20/15 A2993 RMK A01 T02040151  RH  071%=      5-min Rain = 0
KPG1 241249Z 19003KT 21/15 A2993 RMK A01 T02050151  RH  071%=      5-min Rain = 0
KPG1 241250Z 20002KT 21/15 A2993 RMK A01 T02060152  RH  071%=      5-min Rain = 0
KPG1 241251Z 20002KT 21/15 A2993 RMK A01 T02070153  RH  071%=      5-min Rain = 0
KPG1 241252Z 20002KT 21/15 A2993 RMK A01 T02070152  RH  071%=      5-min Rain = 0
KPG1 241253Z 21003KT 21/15 A2993 RMK A01 T02080153  RH  071%=      5-min Rain = 0
KPG1 241254Z 21003KT 21/15 A2993 RMK A01 T02080153  RH  071%=      5-min Rain = 0
KPG1 241255Z 23003KT 21/15 A2993 RMK A01 T02070153  RH  071%=      5-min Rain = 0
KPG1 241256Z 23003KT 21/15 A2993 RMK A01 T02070154  RH  071%=      5-min Rain = 0
KPG1 241257Z 25004KT 21/15 A2993 RMK A01 T02070154  RH  071%=      5-min Rain = 0
KPG1 241258Z 25004KT 21/15 A2993 RMK A01 T02070154  RH  072%=      5-min Rain = 0
KPG1 241259Z 24003KT 21/16 A2993 RMK A01 T02070155  RH  072%=      5-min Rain = 0
KPG1 241300Z 25004KT 21/16 A2993 RMK A01 T02080156  RH  072%=      5-min Rain = 0
KPG1 241301Z 25004KT 21/16 A2993 RMK A01 T02090155  RH  071%=      5-min Rain = 0
KPG1 241302Z 25004KT 21/16 A2993 RMK A01 T02090155  RH  071%=      5-min Rain = 0
KPG1 241303Z 24003KT 21/16 A2993 RMK A01 T02090155  RH  071%=      5-min Rain = 0
KPG1 241304Z 24003KT 21/16 A2993 RMK A01 T02100155  RH  071%=      5-min Rain = 0
KPG1 241305Z 24003KT 21/16 A2993 RMK A01 T02110156  RH  071%=      5-min Rain = 0
KPG1 241306Z 24003KT 21/16 A2993 RMK A01 T02120156  RH  070%=      5-min Rain = 0
KPG1 241307Z 24003KT 21/16 A2993 RMK A01 T02130156  RH  070%=      5-min Rain = 0
KPG1 241308Z 25003KT 21/16 A2993 RMK A01 T02130155  RH  069%=      5-min Rain = 0
KPG1 241309Z 25003KT 21/16 A2993 RMK A01 T02140156  RH  069%=      5-min Rain = 0
KPG1 241310Z 24003KT 21/16 A2993 RMK A01 T02140156  RH  070%=      5-min Rain = 0
KPG1 241311Z 24003KT 22/16 A2993 RMK A01 T02150156  RH  069%=      5-min Rain = 0
KPG1 241312Z 24003KT 22/16 A2993 RMK A01 T02150156  RH  069%=      5-min Rain = 0
KPG1 241313Z 24003KT 22/16 A2993 RMK A01 T02160157  RH  069%=      5-min Rain = 0
KPG1 241314Z 23003KT 22/16 A2993 RMK A01 T02170156  RH  068%=      5-min Rain = 0
KPG1 241315Z 23003KT 22/16 A2993 RMK A01 T02180156  RH  068%=      5-min Rain = 0
KPG1 241316Z 23003KT 22/16 A2993 RMK A01 T02180156  RH  068%=      5-min Rain = 0
KPG1 241317Z 23003KT 22/16 A2993 RMK A01 T02190157  RH  068%=      5-min Rain = 0
KPG1 241318Z 24003KT 22/16 A2993 RMK A01 T02200157  RH  067%=      5-min Rain = 0
KPG1 241319Z 24003KT 22/16 A2993 RMK A01 T02210158  RH  067%=      5-min Rain = 0
KPG1 241320Z 24003KT 22/16 A2993 RMK A01 T02210159  RH  068%=      5-min Rain = 0
KPG1 241321Z 24003KT 22/16 A2993 RMK A01 T02220158  RH  067%=      5-min Rain = 0
KPG1 241322Z 25004KT 22/16 A2993 RMK A01 T02230158  RH  066%=      5-min Rain = 0
KPG1 241323Z 25004KT 22/16 A2993 RMK A01 T02230158  RH  066%=      5-min Rain = 0
KPG1 241324Z 24004KT 22/16 A2993 RMK A01 T02230158  RH  066%=      5-min Rain = 0
KPG1 241325Z 24003KT 22/16 A2993 RMK A01 T02240159  RH  067%=      5-min Rain = 0
KPG1 241326Z 22003KT 23/16 A2993 RMK A01 T02260161  RH  067%=      5-min Rain = 0
KPG1 241327Z 21003KT 23/16 A2993 RMK A01 T02280161  RH  066%=      5-min Rain = 0
KPG1 241328Z 21003KT 23/16 A2993 RMK A01 T02300159  RH  064%=      5-min Rain = 0
KPG1 241329Z 21004KT 23/16 A2993 RMK A01 T02310158  RH  063%=      5-min Rain = 0
KPG1 241330Z 22004KT 23/16 A2993 RMK A01 T02310158  RH  063%=      5-min Rain = 0
KPG1 241331Z 21004KT 23/16 A2993 RMK A01 T02320158  RH  063%=      5-min Rain = 0
KPG1 241332Z 21003KT 23/16 A2993 RMK A01 T02320157  RH  063%=      5-min Rain = 0
KPG1 241333Z 22003KT 23/16 A2993 RMK A01 T02320157  RH  063%=      5-min Rain = 0
KPG1 241334Z 21002KT 23/16 A2993 RMK A01 T02320157  RH  063%=      5-min Rain = 0
KPG1 241335Z 23002KT 23/16 A2993 RMK A01 T02320157  RH  063%=      5-min Rain = 0
KPG1 241336Z 22003KT 23/16 A2993 RMK A01 T02320158  RH  063%=      5-min Rain = 0
KPG1 241337Z 20002KT 23/16 A2994 RMK A01 T02320158  RH  063%=      5-min Rain = 0
KPG1 241338Z 22002KT 23/16 A2994 RMK A01 T02330159  RH  063%=      5-min Rain = 0
KPG1 241339Z 20002KT 23/16 A2994 RMK A01 T02340158  RH  062%=      5-min Rain = 0
KPG1 241340Z 21001KT 23/16 A2994 RMK A01 T02340158  RH  062%=      5-min Rain = 0
KPG1 241341Z 19002KT 24/16 A2994 RMK A01 T02350158  RH  062%=      5-min Rain = 0
KPG1 241342Z 20002KT 24/16 A2994 RMK A01 T02350158  RH  062%=      5-min Rain = 0
KPG1 241343Z 19002KT 24/16 A2994 RMK A01 T02360161  RH  063%=      5-min Rain = 0
KPG1 241344Z 20002KT 24/16 A2994 RMK A01 T02370159  RH  061%=      5-min Rain = 0
KPG1 241345Z 20003KT 24/16 A2994 RMK A01 T02380160  RH  062%=      5-min Rain = 0
KPG1 241346Z 18003KT 24/16 A2994 RMK A01 T02370162  RH  063%=      5-min Rain = 0
KPG1 241347Z 19002KT 24/16 A2994 RMK A01 T02390163  RH  062%=      5-min Rain = 0
KPG1 241348Z 17002KT 24/16 A2994 RMK A01 T02400160  RH  061%=      5-min Rain = 0
KPG1 241349Z 18003KT 24/16 A2994 RMK A01 T02400162  RH  061%=      5-min Rain = 0
KPG1 241350Z 17003KT 24/16 A2994 RMK A01 T02400161  RH  061%=      5-min Rain = 0
KPG1 241351Z 16002KT 24/16 A2994 RMK A01 T02400161  RH  061%=      5-min Rain = 0
KPG1 241352Z 16002KT 24/16 A2994 RMK A01 T02400161  RH  061%=      5-min Rain = 0
KPG1 241353Z 17002KT 24/16 A2994 RMK A01 T02400159  RH  060%=      5-min Rain = 0
KPG1 241354Z 18003KT 24/16 A2994 RMK A01 T02410160  RH  061%=      5-min Rain = 0
KPG1 241355Z 19002KT 24/16 A2994 RMK A01 T02410161  RH  061%=      5-min Rain = 0
KPG1 241356Z 18002KT 24/16 A2994 RMK A01 T02410160  RH  060%=      5-min Rain = 0
KPG1 241357Z 16002KT 24/16 A2994 RMK A01 T02410162  RH  061%=      5-min Rain = 0
KPG1 241358Z 18002KT 24/16 A2994 RMK A01 T02420162  RH  061%=      5-min Rain = 0
KPG1 241359Z 20003KT 24/16 A2994 RMK A01 T02430161  RH  060%=      5-min Rain = 0
KPG1 241400Z 20003KT 24/16 A2994 RMK A01 T02430160  RH  060%=      5-min Rain = 0
KPG1 241401Z 19003KT 24/16 A2994 RMK A01 T02420161  RH  061%=      5-min Rain = 0
KPG1 241402Z 20002KT 24/16 A2994 RMK A01 T02420159  RH  060%=      5-min Rain = 0
KPG1 241403Z 18003KT 24/16 A2994 RMK A01 T02420160  RH  060%=      5-min Rain = 0
KPG1 241404Z 17003KT 24/16 A2994 RMK A01 T02420163  RH  061%=      5-min Rain = 0
KPG1 241405Z 18002KT 24/16 A2994 RMK A01 T02430161  RH  060%=      5-min Rain = 0
KPG1 241406Z 20002KT 24/16 A2994 RMK A01 T02440161  RH  060%=      5-min Rain = 0
KPG1 241407Z 19002KT 25/16 A2994 RMK A01 T02450162  RH  060%=      5-min Rain = 0
KPG1 241408Z 20002KT 25/16 A2994 RMK A01 T02460163  RH  060%=      5-min Rain = 0
KPG1 241409Z 21002KT 25/16 A2994 RMK A01 T02460162  RH  059%=      5-min Rain = 0
KPG1 241410Z 22003KT 25/16 A2994 RMK A01 T02460161  RH  059%=      5-min Rain = 0
KPG1 241411Z 21003KT 25/16 A2994 RMK A01 T02460161  RH  059%=      5-min Rain = 0
KPG1 241412Z 21002KT 25/16 A2994 RMK A01 T02470161  RH  059%=      5-min Rain = 0
KPG1 241413Z 22002KT 25/16 A2994 RMK A01 T02460160  RH  059%=      5-min Rain = 0
KPG1 241414Z 20002KT 25/16 A2994 RMK A01 T02470160  RH  058%=      5-min Rain = 0
KPG1 241415Z 23000KT 25/16 A2994 RMK A01 T02480160  RH  058%=      5-min Rain = 0
KPG1 241416Z 26000KT 25/16 A2994 RMK A01 T02480162  RH  059%=      5-min Rain = 0
KPG1 241417Z 23001KT 25/16 A2994 RMK A01 T02500161  RH  058%=      5-min Rain = 0
KPG1 241418Z 25000KT 25/16 A2994 RMK A01 T02500160  RH  057%=      5-min Rain = 0
KPG1 241419Z 14001KT 25/16 A2994 RMK A01 T02500161  RH  057%=      5-min Rain = 0
KPG1 241420Z 13002KT 25/17 A2994 RMK A01 T02530165  RH  058%=      5-min Rain = 0
KPG1 241421Z 14002KT 25/16 A2994 RMK A01 T02540162  RH  057%=      5-min Rain = 0
KPG1 241422Z 12002KT 26/16 A2994 RMK A01 T02550162  RH  056%=      5-min Rain = 0
KPG1 241423Z 14002KT 26/16 A2994 RMK A01 T02560162  RH  056%=      5-min Rain = 0
KPG1 241424Z 16002KT 26/16 A2994 RMK A01 T02570161  RH  055%=      5-min Rain = 0
KPG1 241425Z 17002KT 26/16 A2994 RMK A01 T02570161  RH  055%=      5-min Rain = 0
KPG1 241426Z 16002KT 26/16 A2995 RMK A01 T02560160  RH  055%=      5-min Rain = 0
KPG1 241427Z 15003KT 26/16 A2995 RMK A01 T02550162  RH  056%=      5-min Rain = 0
KPG1 241428Z 16002KT 26/16 A2995 RMK A01 T02550160  RH  055%=      5-min Rain = 0
KPG1 241429Z 16003KT 26/16 A2995 RMK A01 T02550161  RH  056%=      5-min Rain = 0
KPG1 241430Z 16002KT 26/16 A2995 RMK A01 T02550161  RH  056%=      5-min Rain = 0
KPG1 241431Z 17002KT 26/16 A2995 RMK A01 T02560163  RH  056%=      5-min Rain = 0
KPG1 241432Z 16002KT 26/16 A2995 RMK A01 T02570162  RH  055%=      5-min Rain = 0
KPG1 241433Z 13002KT 26/16 A2995 RMK A01 T02590163  RH  056%=      5-min Rain = 0
KPG1 241434Z 11001KT 26/16 A2995 RMK A01 T02610163  RH  055%=      5-min Rain = 0
KPG1 241435Z 19001KT 26/16 A2995 RMK A01 T02620162  RH  054%=      5-min Rain = 0
KPG1 241436Z 19002KT 26/16 A2995 RMK A01 T02620162  RH  054%=      5-min Rain = 0
KPG1 241437Z 19002KT 26/16 A2995 RMK A01 T02610161  RH  054%=      5-min Rain = 0
KPG1 241438Z 16003KT 26/16 A2995 RMK A01 T02590161  RH  054%=      5-min Rain = 0
KPG1 241439Z 17002KT 26/16 A2995 RMK A01 T02590161  RH  054%=      5-min Rain = 0
KPG1 241440Z 16002KT 26/16 A2995 RMK A01 T02600159  RH  054%=      5-min Rain = 0
KPG1 241441Z 15002KT 26/16 A2995 RMK A01 T02610161  RH  054%=      5-min Rain = 0
KPG1 241442Z 16002KT 26/16 A2995 RMK A01 T02620161  RH  054%=      5-min Rain = 0
KPG1 241443Z 17001KT 26/16 A2995 RMK A01 T02630164  RH  054%=      5-min Rain = 0
KPG1 241444Z 18003KT 27/16 A2995 RMK A01 T02660164  RH  054%=      5-min Rain = 0
KPG1 241445Z 18003KT 27/16 A2995 RMK A01 T02670163  RH  053%=      5-min Rain = 0
KPG1 241446Z 18001KT 27/16 A2995 RMK A01 T02680162  RH  052%=      5-min Rain = 0
KPG1 241447Z 16002KT 27/16 A2995 RMK A01 T02690162  RH  052%=      5-min Rain = 0
KPG1 241448Z 18002KT 27/16 A2995 RMK A01 T02700161  RH  051%=      5-min Rain = 0
KPG1 241449Z 21002KT 27/16 A2995 RMK A01 T02690159  RH  051%=      5-min Rain = 0
KPG1 241450Z 19001KT 27/16 A2995 RMK A01 T02690159  RH  051%=      5-min Rain = 0
KPG1 241451Z 17001KT 27/16 A2995 RMK A01 T02690156  RH  050%=      5-min Rain = 0
KPG1 241452Z 15002KT 27/16 A2995 RMK A01 T02690159  RH  051%=      5-min Rain = 0
KPG1 241453Z 15002KT 27/16 A2995 RMK A01 T02710159  RH  050%=      5-min Rain = 0
KPG1 241454Z 16002KT 27/16 A2995 RMK A01 T02720159  RH  050%=      5-min Rain = 0
KPG1 241455Z 17001KT 27/16 A2995 RMK A01 T02730157  RH  049%=      5-min Rain = 0
KPG1 241456Z 17003KT 27/16 A2995 RMK A01 T02730159  RH  050%=      5-min Rain = 0
KPG1 241457Z 17002KT 27/16 A2995 RMK A01 T02740157  RH  049%=      5-min Rain = 0
KPG1 241458Z 19002KT 27/16 A2995 RMK A01 T02740156  RH  049%=      5-min Rain = 0
KPG1 241459Z 20002KT 27/16 A2995 RMK A01 T02740155  RH  048%=      5-min Rain = 0
KPG1 241500Z 19002KT 27/16 A2995 RMK A01 T02740155  RH  048%=      5-min Rain = 0
KPG1 241501Z 21002KT 27/15 A2995 RMK A01 T02740153  RH  047%=      5-min Rain = 0
KPG1 241502Z 23002KT 28/15 A2994 RMK A01 T02750154  RH  048%=      5-min Rain = 0
KPG1 241503Z 17002KT 28/16 A2994 RMK A01 T02750155  RH  048%=      5-min Rain = 0
KPG1 241504Z 18002KT 28/15 A2994 RMK A01 T02770154  RH  047%=      5-min Rain = 0
KPG1 241505Z 19001KT 28/15 A2994 RMK A01 T02780152  RH  046%=      5-min Rain = 0
KPG1 241506Z 17002KT 28/16 A2994 RMK A01 T02800157  RH  047%=      5-min Rain = 0
KPG1 241507Z 17002KT 28/15 A2994 RMK A01 T02830154  RH  045%=      5-min Rain = 0
KPG1 241508Z 17002KT 28/15 A2994 RMK A01 T02840151  RH  044%=      5-min Rain = 0
KPG1 241509Z 15000KT 28/15 A2994 RMK A01 T02840154  RH  045%=      5-min Rain = 0
KPG1 241510Z 18000KT 29/16 A2994 RMK A01 T02860156  RH  045%=      5-min Rain = 0
KPG1 241511Z 16001KT 29/16 A2994 RMK A01 T02880159  RH  046%=      5-min Rain = 0
KPG1 241512Z 15002KT 29/16 A2994 RMK A01 T02900158  RH  045%=      5-min Rain = 0
KPG1 241513Z 16002KT 29/15 A2994 RMK A01 T02920153  RH  043%=      5-min Rain = 0
KPG1 241514Z 17001KT 29/15 A2994 RMK A01 T02920153  RH  043%=      5-min Rain = 0
KPG1 241515Z 18001KT 29/16 A2994 RMK A01 T02910156  RH  044%=      5-min Rain = 0
KPG1 241516Z 20001KT 29/15 A2994 RMK A01 T02920154  RH  043%=      5-min Rain = 0
KPG1 241517Z 21001KT 29/15 A2994 RMK A01 T02920153  RH  043%=      5-min Rain = 0
KPG1 241518Z 13001KT 29/16 A2994 RMK A01 T02910155  RH  044%=      5-min Rain = 0
KPG1 241519Z 11002KT 29/16 A2994 RMK A01 T02930156  RH  043%=      5-min Rain = 0
KPG1 241520Z 15002KT 29/16 A2994 RMK A01 T02940156  RH  043%=      5-min Rain = 0
KPG1 241521Z 16002KT 30/16 A2994 RMK A01 T02950155  RH  043%=      5-min Rain = 0
KPG1 241522Z 18002KT 30/15 A2994 RMK A01 T02950153  RH  042%=      5-min Rain = 0
KPG1 241523Z 17001KT 29/15 A2994 RMK A01 T02930154  RH  043%=      5-min Rain = 0
KPG1 241524Z 17001KT 29/15 A2994 RMK A01 T02930153  RH  043%=      5-min Rain = 0
KPG1 241525Z 17002KT 29/15 A2994 RMK A01 T02930153  RH  043%=      5-min Rain = 0
KPG1 241526Z 15002KT 29/15 A2994 RMK A01 T02940154  RH  043%=      5-min Rain = 0
KPG1 241527Z 14002KT 29/15 A2994 RMK A01 T02940154  RH  043%=      5-min Rain = 0
KPG1 241528Z 17003KT 30/16 A2994 RMK A01 T02950156  RH  043%=      5-min Rain = 0
KPG1 241529Z 16002KT 30/16 A2994 RMK A01 T02950155  RH  043%=      5-min Rain = 0
KPG1 241530Z 17003KT 30/15 A2994 RMK A01 T02950154  RH  042%=      5-min Rain = 0
KPG1 241531Z 18002KT 30/15 A2994 RMK A01 T02950153  RH  042%=      5-min Rain = 0
KPG1 241532Z 16003KT 29/16 A2994 RMK A01 T02940157  RH  043%=      5-min Rain = 0
KPG1 241533Z 17003KT 30/16 A2994 RMK A01 T02950159  RH  044%=      5-min Rain = 0
KPG1 241534Z 17004KT 30/16 A2994 RMK A01 T02980159  RH  043%=      5-min Rain = 0
KPG1 241535Z 17004KT 30/16 A2994 RMK A01 T02990158  RH  042%=      5-min Rain = 0
KPG1 241536Z 17003KT 30/16 A2994 RMK A01 T03000157  RH  042%=      5-min Rain = 0
KPG1 241537Z 17003KT 30/15 A2994 RMK A01 T02990154  RH  041%=      5-min Rain = 0
KPG1 241538Z 17003KT 30/16 A2994 RMK A01 T02980158  RH  043%=      5-min Rain = 0
KPG1 241539Z 18004KT 30/16 A2994 RMK A01 T02980156  RH  042%=      5-min Rain = 0
KPG1 241540Z 16003KT 30/16 A2994 RMK A01 T02990158  RH  043%=      5-min Rain = 0
KPG1 241541Z 16003KT 30/16 A2994 RMK A01 T03000156  RH  042%=      5-min Rain = 0
KPG1 241542Z 14003KT 30/16 A2994 RMK A01 T03000160  RH  043%=      5-min Rain = 0
KPG1 241543Z 14002KT 30/16 A2994 RMK A01 T03030161  RH  042%=      5-min Rain = 0
KPG1 241544Z 12002KT 31/16 A2994 RMK A01 T03050160  RH  041%=      5-min Rain = 0
KPG1 241545Z 15002KT 31/16 A2994 RMK A01 T03080162  RH  041%=      5-min Rain = 0
KPG1 241546Z 15003KT 31/16 A2994 RMK A01 T03080155  RH  039%=      5-min Rain = 0
KPG1 241547Z 13003KT 31/16 A2994 RMK A01 T03060157  RH  041%=      5-min Rain = 0
KPG1 241548Z 13002KT 31/16 A2994 RMK A01 T03050157  RH  041%=      5-min Rain = 0
KPG1 241549Z 13002KT 30/16 A2994 RMK A01 T03040158  RH  041%=      5-min Rain = 0
KPG1 241550Z 11002KT 30/16 A2994 RMK A01 T03030158  RH  041%=      5-min Rain = 0
KPG1 241551Z 10001KT 30/16 A2994 RMK A01 T03030157  RH  041%=      5-min Rain = 0
KPG1 241552Z 12001KT 30/16 A2994 RMK A01 T03030157  RH  041%=      5-min Rain = 0
KPG1 241553Z 17001KT 30/16 A2993 RMK A01 T03040155  RH  041%=      5-min Rain = 0
KPG1 241554Z 12000KT 30/16 A2993 RMK A01 T03040156  RH  041%=      5-min Rain = 0
KPG1 241555Z 19000KT 31/16 A2993 RMK A01 T03050157  RH  041%=      5-min Rain = 0
KPG1 241556Z 16002KT 31/16 A2993 RMK A01 T03060159  RH  041%=      5-min Rain = 0
KPG1 241557Z 15001KT 31/16 A2993 RMK A01 T03070158  RH  041%=      5-min Rain = 0
KPG1 241558Z 32000KT 31/16 A2993 RMK A01 T03070158  RH  041%=      5-min Rain = 0
KPG1 241559Z 30000KT 31/16 A2993 RMK A01 T03080157  RH  040%=      5-min Rain = 0
KPG1 241600Z 00000KT 31/16 A2993 RMK A01 T03080158  RH  040%=      5-min Rain = 0
KPG1 241601Z 28000KT 31/16 A2993 RMK A01 T03100160  RH  041%=      5-min Rain = 0
KPG1 241602Z 10001KT 31/16 A2993 RMK A01 T03120162  RH  041%=      5-min Rain = 0
KPG1 241603Z 12001KT 32/16 A2993 RMK A01 T03150161  RH  040%=      5-min Rain = 0
KPG1 241604Z 08001KT 32/16 A2993 RMK A01 T03160161  RH  039%=      5-min Rain = 0
KPG1 241605Z 04001KT 32/17 A2993 RMK A01 T03170165  RH  040%=      5-min Rain = 0
KPG1 241606Z 06002KT 32/17 A2993 RMK A01 T03210168  RH  040%=      5-min Rain = 0
KPG1 241607Z 06003KT 32/16 A2993 RMK A01 T03230164  RH  039%=      5-min Rain = 0
KPG1 241608Z 08004KT 32/16 A2993 RMK A01 T03210163  RH  039%=      5-min Rain = 0
KPG1 241609Z 06004KT 32/16 A2993 RMK A01 T03200155  RH  037%=      5-min Rain = 0
KPG1 241610Z 05005KT 32/15 A2993 RMK A01 T03200154  RH  037%=      5-min Rain = 0
KPG1 241611Z 05004KT 32/15 A2993 RMK A01 T03210150  RH  036%=      5-min Rain = 0
KPG1 241612Z 06002KT 32/15 A2993 RMK A01 T03210145  RH  034%=      5-min Rain = 0
KPG1 241613Z 07003KT 32/15 A2993 RMK A01 T03210147  RH  035%=      5-min Rain = 0
KPG1 241614Z 05007KT 32/14 A2993 RMK A01 T03210143  RH  034%=      5-min Rain = 0
KPG1 241615Z 05004KT 32/15 A2993 RMK A01 T03210145  RH  035%=      5-min Rain = 0
KPG1 241616Z 04005KT 32/14 A2993 RMK A01 T03220142  RH  034%=      5-min Rain = 0
KPG1 241617Z 01004KT 32/14 A2993 RMK A01 T03230138  RH  033%=      5-min Rain = 0
KPG1 241618Z 04003KT 32/14 A2993 RMK A01 T03210140  RH  033%=      5-min Rain = 0
KPG1 241619Z 06006KT 32/14 A2993 RMK A01 T03230139  RH  033%=      5-min Rain = 0
KPG1 241620Z 07005KT 32/13 A2993 RMK A01 T03240134  RH  032%=      5-min Rain = 0
KPG1 241621Z 06006KT 32/13 A2993 RMK A01 T03230130  RH  031%=      5-min Rain = 0
KPG1 241622Z 07006KT 32/13 A2993 RMK A01 T03220128  RH  031%=      5-min Rain = 0
KPG1 241623Z 07005KT 32/13 A2993 RMK A01 T03220127  RH  031%=      5-min Rain = 0
KPG1 241624Z 07005KT 32/12 A2993 RMK A01 T03210123  RH  030%=      5-min Rain = 0
KPG1 241625Z 07005KT 32/13 A2993 RMK A01 T03210126  RH  031%=      5-min Rain = 0
KPG1 241626Z 06006KT 32/13 A2993 RMK A01 T03220125  RH  030%=      5-min Rain = 0
KPG1 241627Z 06005KT 32/12 A2993 RMK A01 T03230124  RH  030%=      5-min Rain = 0
KPG1 241628Z 06005KT 33/13 A2993 RMK A01 T03250129  RH  030%=      5-min Rain = 0
KPG1 241629Z 06003KT 33/13 A2993 RMK A01 T03270126  RH  030%=      5-min Rain = 0
KPG1 241630Z 07004KT 33/13 A2993 RMK A01 T03270127  RH  030%=      5-min Rain = 0
KPG1 241631Z 05005KT 33/13 A2993 RMK A01 T03290128  RH  030%=      5-min Rain = 0
KPG1 241632Z 05004KT 33/13 A2993 RMK A01 T03290126  RH  029%=      5-min Rain = 0
KPG1 241633Z 06004KT 33/13 A2993 RMK A01 T03300127  RH  029%=      5-min Rain = 0
KPG1 241634Z 03004KT 33/12 A2993 RMK A01 T03310121  RH  028%=      5-min Rain = 0
KPG1 241635Z 02004KT 33/13 A2993 RMK A01 T03300126  RH  029%=      5-min Rain = 0
KPG1 241636Z 02003KT 33/12 A2993 RMK A01 T03300122  RH  028%=      5-min Rain = 0
KPG1 241637Z 03005KT 33/13 A2993 RMK A01 T03300126  RH  029%=      5-min Rain = 0
KPG1 241638Z 03004KT 33/13 A2993 RMK A01 T03310126  RH  029%=      5-min Rain = 0
KPG1 241639Z 02004KT 33/12 A2993 RMK A01 T03320123  RH  028%=      5-min Rain = 0
KPG1 241640Z 01004KT 33/13 A2993 RMK A01 T03330125  RH  028%=      5-min Rain = 0
KPG1 241641Z 35001KT 33/12 A2993 RMK A01 T03320124  RH  028%=      5-min Rain = 0
KPG1 241642Z 02006KT 33/12 A2993 RMK A01 T03320122  RH  028%=      5-min Rain = 0
KPG1 241643Z 02006KT 33/12 A2993 RMK A01 T03300121  RH  028%=      5-min Rain = 0
KPG1 241644Z 03004KT 33/12 A2993 RMK A01 T03290123  RH  029%=      5-min Rain = 0
KPG1 241645Z 03004KT 33/13 A2993 RMK A01 T03320125  RH  029%=      5-min Rain = 0
KPG1 241646Z 04004KT 33/13 A2993 RMK A01 T03340125  RH  028%=      5-min Rain = 0
KPG1 241647Z 04005KT 34/12 A2993 RMK A01 T03360122  RH  027%=      5-min Rain = 0
KPG1 241648Z 05005KT 34/12 A2993 RMK A01 T03360122  RH  027%=      5-min Rain = 0
KPG1 241649Z 04005KT 34/11 A2993 RMK A01 T03350111  RH  026%=      5-min Rain = 0
KPG1 241650Z 05003KT 33/12 A2993 RMK A01 T03330118  RH  027%=      5-min Rain = 0
KPG1 241651Z 05006KT 34/12 A2993 RMK A01 T03360116  RH  026%=      5-min Rain = 0
KPG1 241652Z 06006KT 34/11 A2993 RMK A01 T03370107  RH  025%=      5-min Rain = 0
KPG1 241653Z 06004KT 34/11 A2993 RMK A01 T03350105  RH  025%=      5-min Rain = 0
KPG1 241654Z 05006KT 34/10 A2993 RMK A01 T03360101  RH  024%=      5-min Rain = 0
KPG1 241655Z 06006KT 34/10 A2993 RMK A01 T03360103  RH  024%=      5-min Rain = 0
KPG1 241656Z 05004KT 34/11 A2993 RMK A01 T03360106  RH  024%=      5-min Rain = 0
KPG1 241657Z 06003KT 34/10 A2993 RMK A01 T03370101  RH  024%=      5-min Rain = 0
KPG1 241658Z 07003KT 34/11 A2993 RMK A01 T03370106  RH  024%=      5-min Rain = 0
KPG1 241659Z 06004KT 34/10 A2993 RMK A01 T03370098  RH  023%=      5-min Rain = 0
KPG1 241700Z 07002KT 34/10 A2993 RMK A01 T03350095  RH  023%=      5-min Rain = 0
KPG1 241701Z 10003KT 33/10 A2993 RMK A01 T03340096  RH  023%=      5-min Rain = 0
KPG1 241702Z 03006KT 34/11 A2993 RMK A01 T03360107  RH  025%=      5-min Rain = 0
KPG1 241703Z 05006KT 34/10 A2993 RMK A01 T03390101  RH  023%=      5-min Rain = 0
KPG1 241704Z 04004KT 34/11 A2993 RMK A01 T03400109  RH  024%=      5-min Rain = 0
KPG1 241705Z 03002KT 34/12 A2993 RMK A01 T03440118  RH  025%=      5-min Rain = 0
KPG1 241706Z 06001KT 35/11 A2993 RMK A01 T03470110  RH  024%=      5-min Rain = 0
KPG1 241707Z 05003KT 35/12 A2993 RMK A01 T03490116  RH  024%=      5-min Rain = 0
KPG1 241708Z 03004KT 35/11 A2993 RMK A01 T03480106  RH  023%=      5-min Rain = 0
KPG1 241709Z 02005KT 35/11 A2993 RMK A01 T03450105  RH  023%=      5-min Rain = 0
KPG1 241710Z 02005KT 34/11 A2993 RMK A01 T03430107  RH  024%=      5-min Rain = 0
KPG1 241711Z 03006KT 34/10 A2993 RMK A01 T03430098  RH  022%=      5-min Rain = 0
KPG1 241712Z 07006KT 34/09 A2993 RMK A01 T03410094  RH  022%=      5-min Rain = 0
KPG1 241713Z 08005KT 34/08 A2993 RMK A01 T03420080  RH  020%=      5-min Rain = 0
KPG1 241714Z 09005KT 34/08 A2993 RMK A01 T03420082  RH  020%=      5-min Rain = 0
KPG1 241715Z 09004KT 34/08 A2993 RMK A01 T03410082  RH  020%=      5-min Rain = 0
KPG1 241716Z 12002KT 34/09 A2993 RMK A01 T03410089  RH  021%=      5-min Rain = 0
KPG1 241717Z 10005KT 34/08 A2993 RMK A01 T03430083  RH  020%=      5-min Rain = 0
KPG1 241718Z 11004KT 34/08 A2993 RMK A01 T03430080  RH  020%=      5-min Rain = 0
KPG1 241719Z 08003KT 34/08 A2993 RMK A01 T03420083  RH  020%=      5-min Rain = 0
KPG1 241720Z 02005KT 34/09 A2993 RMK A01 T03410087  RH  021%=      5-min Rain = 0
KPG1 241721Z 01004KT 34/08 A2993 RMK A01 T03420075  RH  019%=      5-min Rain = 0
KPG1 241722Z 06006KT 34/08 A2993 RMK A01 T03440077  RH  019%=      5-min Rain = 0
KPG1 241723Z 05004KT 35/06 A2993 RMK A01 T03460062  RH  017%=      5-min Rain = 0
KPG1 241724Z 02005KT 35/09 A2993 RMK A01 T03500091  RH  021%=      5-min Rain = 0
KPG1 241725Z 02006KT 35/09 A2993 RMK A01 T03500092  RH  021%=      5-min Rain = 0
KPG1 241726Z 01006KT 35/09 A2993 RMK A01 T03500091  RH  021%=      5-min Rain = 0
KPG1 241727Z 01004KT 35/10 A2993 RMK A01 T03470095  RH  021%=      5-min Rain = 0
KPG1 241728Z 05002KT 35/10 A2993 RMK A01 T03470101  RH  022%=      5-min Rain = 0
KPG1 241729Z 08006KT 35/09 A2993 RMK A01 T03490094  RH  021%=      5-min Rain = 0
KPG1 241730Z 07006KT 35/08 A2993 RMK A01 T03500083  RH  020%=      5-min Rain = 0
KPG1 241731Z 07008KT 35/07 A2993 RMK A01 T03500069  RH  018%=      5-min Rain = 0
KPG1 241732Z 08007KT 35/06 A2993 RMK A01 T03490057  RH  016%=      5-min Rain = 0
KPG1 241733Z 08004KT 35/06 A2993 RMK A01 T03480059  RH  017%=      5-min Rain = 0
KPG1 241734Z 10003KT 35/06 A2993 RMK A01 T03480059  RH  017%=      5-min Rain = 0
KPG1 241735Z 09006KT 35/08 A2993 RMK A01 T03490081  RH  019%=      5-min Rain = 0
KPG1 241736Z 08006KT 35/10 A2993 RMK A01 T03480097  RH  022%=      5-min Rain = 0
KPG1 241737Z 03006KT 35/07 A2993 RMK A01 T03470073  RH  019%=      5-min Rain = 0
KPG1 241738Z 02007KT 35/06 A2993 RMK A01 T03480056  RH  016%=      5-min Rain = 0
KPG1 241739Z 06006KT 35/06 A2993 RMK A01 T03490058  RH  017%=      5-min Rain = 0
KPG1 241740Z 07007KT 35/07 A2993 RMK A01 T03490071  RH  018%=      5-min Rain = 0
KPG1 241741Z 07007KT 35/05 A2993 RMK A01 T03500051  RH  016%=      5-min Rain = 0
KPG1 241742Z 07006KT 35/08 A2993 RMK A01 T03500076  RH  019%=      5-min Rain = 0
KPG1 241743Z 05005KT 35/08 A2993 RMK A01 T03500082  RH  019%=      5-min Rain = 0
KPG1 241744Z 05003KT 35/07 A2993 RMK A01 T03500065  RH  017%=      5-min Rain = 0
KPG1 241745Z 05005KT 35/06 A2993 RMK A01 T03500062  RH  017%=      5-min Rain = 0
KPG1 241746Z 08007KT 35/05 A2993 RMK A01 T03490051  RH  016%=      5-min Rain = 0
KPG1 241747Z 08008KT 35/06 A2993 RMK A01 T03470060  RH  017%=      5-min Rain = 0
KPG1 241748Z 05007KT 35/06 A2993 RMK A01 T03470058  RH  017%=      5-min Rain = 0
KPG1 241749Z 06005KT 35/06 A2993 RMK A01 T03450062  RH  017%=      5-min Rain = 0
KPG1 241750Z 02006KT 35/07 A2993 RMK A01 T03470073  RH  019%=      5-min Rain = 0
KPG1 241751Z 02006KT 35/08 A2993 RMK A01 T03480077  RH  019%=      5-min Rain = 0
KPG1 241752Z 02003KT 35/08 A2993 RMK A01 T03470079  RH  019%=      5-min Rain = 0
KPG1 241753Z 07005KT 35/09 A2992 RMK A01 T03470085  RH  020%=      5-min Rain = 0
KPG1 241754Z 08006KT 35/08 A2993 RMK A01 T03480076  RH  019%=      5-min Rain = 0
KPG1 241755Z 08007KT 35/05 A2993 RMK A01 T03500050  RH  015%=      5-min Rain = 0
KPG1 241756Z 08006KT 35/05 A2992 RMK A01 T03520051  RH  015%=      5-min Rain = 0
KPG1 241757Z 07004KT 35/05 A2992 RMK A01 T03520047  RH  015%=      5-min Rain = 0
KPG1 241758Z 09006KT 35/05 A2992 RMK A01 T03520052  RH  016%=      5-min Rain = 0
KPG1 241759Z 07005KT 35/07 A2992 RMK A01 T03520069  RH  017%=      5-min Rain = 0
KPG1 241800Z 07006KT 35/07 A2992 RMK A01 T03540072  RH  018%=      5-min Rain = 0
KPG1 241801Z 06005KT 35/07 A2992 RMK A01 T03530070  RH  018%=      5-min Rain = 0
KPG1 241802Z 09005KT 35/07 A2992 RMK A01 T03520073  RH  018%=      5-min Rain = 0
KPG1 241803Z 08006KT 35/08 A2992 RMK A01 T03510076  RH  018%=      5-min Rain = 0
KPG1 241804Z 09006KT 35/07 A2992 RMK A01 T03490073  RH  018%=      5-min Rain = 0
KPG1 241805Z 06005KT 35/06 A2992 RMK A01 T03480063  RH  017%=      5-min Rain = 0
KPG1 241806Z 04006KT 35/07 A2992 RMK A01 T03480067  RH  018%=      5-min Rain = 0
KPG1 241807Z 06009KT 35/06 A2992 RMK A01 T03510061  RH  017%=      5-min Rain = 0
KPG1 241808Z 06007KT 35/05 A2992 RMK A01 T03520052  RH  016%=      5-min Rain = 0
KPG1 241809Z 07007KT 35/06 A2992 RMK A01 T03510056  RH  016%=      5-min Rain = 0
KPG1 241810Z 08006KT 35/06 A2992 RMK A01 T03510058  RH  016%=      5-min Rain = 0
KPG1 241811Z 07006KT 35/06 A2992 RMK A01 T03490059  RH  017%=      5-min Rain = 0
KPG1 241812Z 06005KT 35/07 A2992 RMK A01 T03470067  RH  018%=      5-min Rain = 0
KPG1 241813Z 09005KT 35/07 A2992 RMK A01 T03490067  RH  018%=      5-min Rain = 0
KPG1 241814Z 07006KT 35/08 A2992 RMK A01 T03520076  RH  018%=      5-min Rain = 0
KPG1 241815Z 07008KT 36/07 A2992 RMK A01 T03570072  RH  017%=      5-min Rain = 0
KPG1 241816Z 06008KT 36/06 A2992 RMK A01 T03570061  RH  016%=      5-min Rain = 0
KPG1 241817Z 05006KT 36/06 A2992 RMK A01 T03550059  RH  016%=      5-min Rain = 0
KPG1 241818Z 09004KT 36/07 A2992 RMK A01 T03570066  RH  017%=      5-min Rain = 0
KPG1 241819Z 08005KT 36/06 A2992 RMK A01 T03590064  RH  016%=      5-min Rain = 0
KPG1 241820Z 07008KT 36/05 A2992 RMK A01 T03600053  RH  015%=      5-min Rain = 0
KPG1 241821Z 07006KT 36/04 A2992 RMK A01 T03580041  RH  014%=      5-min Rain = 0
KPG1 241822Z 09006KT 35/04 A2992 RMK A01 T03540043  RH  014%=      5-min Rain = 0
KPG1 241823Z 08007KT 35/06 A2992 RMK A01 T03540062  RH  016%=      5-min Rain = 0
KPG1 241824Z 08006KT 36/06 A2992 RMK A01 T03550060  RH  016%=      5-min Rain = 0
KPG1 241825Z 12003KT 35/06 A2992 RMK A01 T03540056  RH  016%=      5-min Rain = 0
KPG1 241826Z 10006KT 35/07 A2992 RMK A01 T03530066  RH  017%=      5-min Rain = 0
KPG1 241827Z 07009KT 36/05 A2992 RMK A01 T03560052  RH  015%=      5-min Rain = 0
KPG1 241828Z 07010KT 36/04 A2992 RMK A01 T03570035  RH  013%=      5-min Rain = 0
KPG1 241829Z 05008KT 36/04 A2992 RMK A01 T03580036  RH  014%=      5-min Rain = 0
KPG1 241830Z 05006KT 36/04 A2992 RMK A01 T03560041  RH  014%=      5-min Rain = 0
KPG1 241831Z 06008KT 36/05 A2992 RMK A01 T03570047  RH  015%=      5-min Rain = 0
KPG1 241832Z 07009KT 36/04 A2992 RMK A01 T03570044  RH  014%=      5-min Rain = 0
KPG1 241833Z 05006KT 36/03 A2992 RMK A01 T03550030  RH  013%=      5-min Rain = 0
KPG1 241834Z 06008KT 36/04 A2992 RMK A01 T03550039  RH  014%=      5-min Rain = 0
KPG1 241835Z 06007KT 36/04 A2992 RMK A01 T03550043  RH  014%=      5-min Rain = 0
KPG1 241836Z 06006KT 36/05 A2992 RMK A01 T03550045  RH  015%=      5-min Rain = 0
KPG1 241837Z 07006KT 36/04 A2992 RMK A01 T03550042  RH  014%=      5-min Rain = 0
KPG1 241838Z 08008KT 36/05 A2991 RMK A01 T03560053  RH  015%=      5-min Rain = 0
KPG1 241839Z 05008KT 36/05 A2991 RMK A01 T03560053  RH  015%=      5-min Rain = 0
KPG1 241840Z 03006KT 36/06 A2991 RMK A01 T03560057  RH  016%=      5-min Rain = 0
KPG1 241841Z 05006KT 36/05 A2991 RMK A01 T03570053  RH  015%=      5-min Rain = 0
KPG1 241842Z 06008KT 36/05 A2991 RMK A01 T03590051  RH  015%=      5-min Rain = 0
KPG1 241843Z 04008KT 36/05 A2991 RMK A01 T03590046  RH  014%=      5-min Rain = 0
KPG1 241844Z 03007KT 36/05 A2991 RMK A01 T03580047  RH  014%=      5-min Rain = 0
KPG1 241845Z 04006KT 36/05 A2991 RMK A01 T03570053  RH  015%=      5-min Rain = 0
KPG1 241846Z 06009KT 36/05 A2991 RMK A01 T03560053  RH  015%=      5-min Rain = 0
KPG1 241847Z 06008KT 36/05 A2991 RMK A01 T03550052  RH  015%=      5-min Rain = 0
KPG1 241848Z 06007KT 35/06 A2991 RMK A01 T03530055  RH  016%=      5-min Rain = 0
KPG1 241849Z 06008KT 35/05 A2991 RMK A01 T03540051  RH  015%=      5-min Rain = 0
KPG1 241850Z 05006KT 36/06 A2991 RMK A01 T03560057  RH  016%=      5-min Rain = 0
KPG1 241851Z 06006KT 36/05 A2991 RMK A01 T03560054  RH  015%=      5-min Rain = 0
KPG1 241852Z 06006KT 36/06 A2991 RMK A01 T03560056  RH  016%=      5-min Rain = 0
KPG1 241853Z 06007KT 36/05 A2991 RMK A01 T03570054  RH  015%=      5-min Rain = 0
KPG1 241854Z 05006KT 36/06 A2991 RMK A01 T03560055  RH  015%=      5-min Rain = 0
KPG1 241855Z 05005KT 36/06 A2991 RMK A01 T03550056  RH  016%=      5-min Rain = 0
KPG1 241856Z 06006KT 36/06 A2991 RMK A01 T03570064  RH  016%=      5-min Rain = 0
KPG1 241857Z 06009KT 36/05 A2991 RMK A01 T03590054  RH  015%=      5-min Rain = 0
KPG1 241858Z 05007KT 36/06 A2991 RMK A01 T03600055  RH  015%=      5-min Rain = 0
KPG1 241859Z 05006KT 36/05 A2991 RMK A01 T03580051  RH  015%=      5-min Rain = 0
KPG1 241900Z 04005KT 36/06 A2991 RMK A01 T03550057  RH  016%=      5-min Rain = 0
KPG1 241901Z 04004KT 36/04 A2991 RMK A01 T03570041  RH  014%=      5-min Rain = 0
KPG1 241902Z 01004KT 36/04 A2991 RMK A01 T03560043  RH  014%=      5-min Rain = 0
KPG1 241903Z 01005KT 36/05 A2991 RMK A01 T03570053  RH  015%=      5-min Rain = 0
KPG1 241904Z 05004KT 36/06 A2991 RMK A01 T03600059  RH  016%=      5-min Rain = 0
KPG1 241905Z 08008KT 36/06 A299 RMK A01 T03620063  RH  016%=      5-min Rain = 0
KPG1 241906Z 09005KT 36/05 A299 RMK A01 T03640053  RH  015%=      5-min Rain = 0
KPG1 241907Z 07005KT 36/06 A299 RMK A01 T03630061  RH  016%=      5-min Rain = 0
KPG1 241908Z 05008KT 37/05 A299 RMK A01 T03660048  RH  014%=      5-min Rain = 0
KPG1 241909Z 05006KT 36/04 A299 RMK A01 T03630038  RH  013%=      5-min Rain = 0
KPG1 241910Z 07008KT 36/04 A299 RMK A01 T03600041  RH  014%=      5-min Rain = 0
KPG1 241911Z 08006KT 36/04 A299 RMK A01 T03600041  RH  014%=      5-min Rain = 0
KPG1 241912Z 08008KT 36/05 A299 RMK A01 T03600045  RH  014%=      5-min Rain = 0
KPG1 241913Z 06008KT 36/05 A299 RMK A01 T03600051  RH  015%=      5-min Rain = 0
KPG1 241914Z 05007KT 36/06 A299 RMK A01 T03590056  RH  015%=      5-min Rain = 0
KPG1 241915Z 06006KT 36/07 A299 RMK A01 T03590065  RH  016%=      5-min Rain = 0
KPG1 241916Z 05004KT 36/06 A299 RMK A01 T03600060  RH  016%=      5-min Rain = 0
KPG1 241917Z 04003KT 36/07 A299 RMK A01 T03610065  RH  016%=      5-min Rain = 0
KPG1 241918Z 03002KT 36/07 A299 RMK A01 T03630066  RH  016%=      5-min Rain = 0
KPG1 241919Z 06002KT 36/06 A299 RMK A01 T03630062  RH  016%=      5-min Rain = 0
KPG1 241920Z 06003KT 36/07 A299 RMK A01 T03620065  RH  016%=      5-min Rain = 0
KPG1 241921Z 08006G12KT 36/07 A299 RMK A01 T03620070  RH  017%=      5-min Rain = 0
KPG1 241922Z 08011KT 36/08 A299 RMK A01 T03630078  RH  017%=      5-min Rain = 0
KPG1 241923Z 09009KT 36/08 A299 RMK A01 T03630075  RH  017%=      5-min Rain = 0
KPG1 241924Z 08007KT 36/07 A299 RMK A01 T03590070  RH  017%=      5-min Rain = 0
KPG1 241925Z 08005KT 36/07 A299 RMK A01 T03580066  RH  017%=      5-min Rain = 0
KPG1 241926Z 10005KT 36/07 A2989 RMK A01 T03580065  RH  016%=      5-min Rain = 0
KPG1 241927Z 11004KT 36/07 A2989 RMK A01 T03580069  RH  017%=      5-min Rain = 0
KPG1 241928Z 10007KT 36/07 A2989 RMK A01 T03580073  RH  017%=      5-min Rain = 0
KPG1 241929Z 09009KT 36/07 A2989 RMK A01 T03590069  RH  017%=      5-min Rain = 0
KPG1 241930Z 10008KT 36/07 A2989 RMK A01 T03620069  RH  017%=      5-min Rain = 0
KPG1 241931Z 10007KT 36/07 A2989 RMK A01 T03620070  RH  017%=      5-min Rain = 0
KPG1 241932Z 12006KT 36/07 A2989 RMK A01 T03610068  RH  016%=      5-min Rain = 0
KPG1 241933Z 13004KT 36/07 A2989 RMK A01 T03610068  RH  017%=      5-min Rain = 0
KPG1 241934Z 07003KT 36/07 A2989 RMK A01 T03620073  RH  017%=      5-min Rain = 0
KPG1 241935Z 09007KT 37/08 A2989 RMK A01 T03660075  RH  017%=      5-min Rain = 0
KPG1 241936Z 08005KT 37/07 A2989 RMK A01 T03670067  RH  016%=      5-min Rain = 0
KPG1 241937Z 09003KT 37/07 A2989 RMK A01 T03660068  RH  016%=      5-min Rain = 0
KPG1 241938Z 07002KT 36/08 A2989 RMK A01 T03640077  RH  017%=      5-min Rain = 0
KPG1 241939Z 06004KT 37/07 A2989 RMK A01 T03670072  RH  016%=      5-min Rain = 0
KPG1 241940Z 06005KT 37/07 A2989 RMK A01 T03660072  RH  017%=      5-min Rain = 0
KPG1 241941Z 09006KT 37/08 A2989 RMK A01 T03660083  RH  018%=      5-min Rain = 0
KPG1 241942Z 07007KT 37/09 A2989 RMK A01 T03700087  RH  018%=      5-min Rain = 0
KPG1 241943Z 04007KT 37/08 A2989 RMK A01 T03730079  RH  017%=      5-min Rain = 0
KPG1 241944Z 04005KT 37/08 A2989 RMK A01 T03730078  RH  017%=      5-min Rain = 0
KPG1 241945Z 04004KT 37/07 A2989 RMK A01 T03730073  RH  016%=      5-min Rain = 0
KPG1 241946Z 05003KT 37/06 A2989 RMK A01 T03710064  RH  015%=      5-min Rain = 0
KPG1 241947Z 03003KT 37/07 A2988 RMK A01 T03690068  RH  016%=      5-min Rain = 0
KPG1 241948Z 02006KT 37/07 A2988 RMK A01 T03690072  RH  016%=      5-min Rain = 0
KPG1 241949Z 05006KT 37/07 A2988 RMK A01 T03690068  RH  016%=      5-min Rain = 0
KPG1 241950Z 08010KT 37/07 A2988 RMK A01 T03680068  RH  016%=      5-min Rain = 0
KPG1 241951Z 08008KT 37/06 A2988 RMK A01 T03680058  RH  015%=      5-min Rain = 0
KPG1 241952Z 08006KT 37/04 A2988 RMK A01 T03670043  RH  013%=      5-min Rain = 0
KPG1 241953Z 08004KT 36/04 A2988 RMK A01 T03640043  RH  014%=      5-min Rain = 0
KPG1 241954Z 03003KT 36/05 A2988 RMK A01 T03640053  RH  015%=      5-min Rain = 0
KPG1 241955Z 07007KT 37/06 A2988 RMK A01 T03660063  RH  016%=      5-min Rain = 0
KPG1 241956Z 09009KT 37/07 A2988 RMK A01 T03670067  RH  016%=      5-min Rain = 0
KPG1 241957Z 12006KT 36/07 A2988 RMK A01 T03640066  RH  016%=      5-min Rain = 0
KPG1 241958Z 09006KT 36/07 A2988 RMK A01 T03620073  RH  017%=      5-min Rain = 0
KPG1 241959Z 05008KT 37/06 A2988 RMK A01 T03650064  RH  016%=      5-min Rain = 0
KPG1 242000Z 06006KT 36/06 A2988 RMK A01 T03630058  RH  015%=      5-min Rain = 0
KPG1 242001Z 05004KT 36/06 A2988 RMK A01 T03610059  RH  015%=      5-min Rain = 0
KPG1 242002Z 05003KT 36/07 A2988 RMK A01 T03630069  RH  017%=      5-min Rain = 0
KPG1 242003Z 04001KT 36/06 A2988 RMK A01 T03640064  RH  016%=      5-min Rain = 0
KPG1 242004Z 03002KT 37/07 A2988 RMK A01 T03660070  RH  016%=      5-min Rain = 0
KPG1 242005Z 04006KT 37/08 A2988 RMK A01 T03700079  RH  017%=      5-min Rain = 0
KPG1 242006Z 03008KT 37/08 A2988 RMK A01 T03710078  RH  017%=      5-min Rain = 0
KPG1 242007Z 05007KT 37/08 A2988 RMK A01 T03710077  RH  017%=      5-min Rain = 0
KPG1 242008Z 06008KT 37/09 A2988 RMK A01 T03720085  RH  018%=      5-min Rain = 0
KPG1 242009Z 06011KT 37/08 A2988 RMK A01 T03740077  RH  016%=      5-min Rain = 0
KPG1 242010Z 07007KT 37/07 A2988 RMK A01 T03710074  RH  016%=      5-min Rain = 0
KPG1 242011Z 04005KT 37/07 A2988 RMK A01 T03680069  RH  016%=      5-min Rain = 0
KPG1 242012Z 06005KT 37/07 A2988 RMK A01 T03650073  RH  017%=      5-min Rain = 0
KPG1 242013Z 06006KT 37/08 A2988 RMK A01 T03680079  RH  017%=      5-min Rain = 0
KPG1 242014Z 06006KT 37/07 A2987 RMK A01 T03690072  RH  016%=      5-min Rain = 0
KPG1 242015Z 06007KT 37/07 A2987 RMK A01 T03690067  RH  016%=      5-min Rain = 0
KPG1 242016Z 09007KT 37/07 A2987 RMK A01 T03680072  RH  016%=      5-min Rain = 0
KPG1 242017Z 08008KT 37/07 A2987 RMK A01 T03690072  RH  016%=      5-min Rain = 0
KPG1 242018Z 06007KT 37/06 A2987 RMK A01 T03680060  RH  015%=      5-min Rain = 0
KPG1 242019Z 07006KT 37/06 A2987 RMK A01 T03680059  RH  015%=      5-min Rain = 0
KPG1 242020Z 09006KT 37/07 A2987 RMK A01 T03660067  RH  016%=      5-min Rain = 0
KPG1 242021Z 06005KT 37/07 A2987 RMK A01 T03660066  RH  016%=      5-min Rain = 0
KPG1 242022Z 01004KT 37/07 A2987 RMK A01 T03670071  RH  016%=      5-min Rain = 0
KPG1 242023Z 02003KT 37/08 A2987 RMK A01 T03700077  RH  017%=      5-min Rain = 0
KPG1 242024Z 05002KT 38/08 A2987 RMK A01 T03760080  RH  016%=      5-min Rain = 0
KPG1 242025Z 00006KT 38/07 A2987 RMK A01 T03780072  RH  015%=      5-min Rain = 0
KPG1 242026Z 00005KT 38/07 A2987 RMK A01 T03750068  RH  015%=      5-min Rain = 0
KPG1 242027Z 02007KT 37/07 A2987 RMK A01 T03730065  RH  015%=      5-min Rain = 0
KPG1 242028Z 03006KT 37/07 A2987 RMK A01 T03710074  RH  016%=      5-min Rain = 0
KPG1 242029Z 07010KT 37/08 A2987 RMK A01 T03740076  RH  016%=      5-min Rain = 0
KPG1 242030Z 08011KT 38/08 A2987 RMK A01 T03760075  RH  016%=      5-min Rain = 0
KPG1 242031Z 07010KT 38/07 A2987 RMK A01 T03750073  RH  016%=      5-min Rain = 0
KPG1 242032Z 07012G18KT 37/07 A2987 RMK A01 T03700067  RH  016%=      5-min Rain = 0
KPG1 242033Z 11010G16KT 37/07 A2987 RMK A01 T03680069  RH  016%=      5-min Rain = 0
KPG1 242034Z 08008KT 37/08 A2987 RMK A01 T03670075  RH  017%=      5-min Rain = 0
KPG1 242035Z 07008KT 37/07 A2987 RMK A01 T03690072  RH  016%=      5-min Rain = 0
KPG1 242036Z 07009KT 37/07 A2987 RMK A01 T03690069  RH  016%=      5-min Rain = 0
KPG1 242037Z 10007KT 37/07 A2987 RMK A01 T03680069  RH  016%=      5-min Rain = 0
KPG1 242038Z 13003KT 37/07 A2987 RMK A01 T03670071  RH  016%=      5-min Rain = 0
KPG1 242039Z 10004KT 37/07 A2986 RMK A01 T03680074  RH  017%=      5-min Rain = 0
KPG1 242040Z 05007KT 37/07 A2986 RMK A01 T03710073  RH  016%=      5-min Rain = 0
KPG1 242041Z 04007KT 37/07 A2986 RMK A01 T03730068  RH  016%=      5-min Rain = 0
KPG1 242042Z 03007KT 37/07 A2986 RMK A01 T03730065  RH  015%=      5-min Rain = 0
KPG1 242043Z 36008KT 37/07 A2986 RMK A01 T03730066  RH  015%=      5-min Rain = 0
KPG1 242044Z 33007KT 37/06 A2986 RMK A01 T03740063  RH  015%=      5-min Rain = 0
KPG1 242045Z 32005KT 37/06 A2986 RMK A01 T03720060  RH  015%=      5-min Rain = 0
KPG1 242046Z 30005KT 37/06 A2986 RMK A01 T03700058  RH  015%=      5-min Rain = 0
KPG1 242047Z 32004KT 37/06 A2986 RMK A01 T03700064  RH  015%=      5-min Rain = 0
KPG1 242048Z 34002KT 37/06 A2986 RMK A01 T03710061  RH  015%=      5-min Rain = 0
KPG1 242049Z 01000KT 37/06 A2986 RMK A01 T03720063  RH  015%=      5-min Rain = 0
KPG1 242050Z 02000KT 37/06 A2986 RMK A01 T03740063  RH  015%=      5-min Rain = 0
KPG1 242051Z 10001KT 38/07 A2986 RMK A01 T03770069  RH  015%=      5-min Rain = 0
KPG1 242052Z 10002KT 38/06 A2986 RMK A01 T03800062  RH  014%=      5-min Rain = 0
KPG1 242053Z 14002KT 38/06 A2986 RMK A01 T03790061  RH  014%=      5-min Rain = 0
KPG1 242054Z 16002KT 38/06 A2986 RMK A01 T03780060  RH  014%=      5-min Rain = 0
KPG1 242055Z 13003KT 38/07 A2986 RMK A01 T03770067  RH  015%=      5-min Rain = 0
KPG1 242056Z 12003KT 38/06 A2986 RMK A01 T03760063  RH  015%=      5-min Rain = 0
KPG1 242057Z 07005KT 38/07 A2986 RMK A01 T03750065  RH  015%=      5-min Rain = 0
KPG1 242058Z 06008KT 37/07 A2986 RMK A01 T03730067  RH  015%=      5-min Rain = 0
KPG1 242059Z 05010KT 37/07 A2986 RMK A01 T03730066  RH  015%=      5-min Rain = 0
KPG1 242100Z 07010KT 37/06 A2986 RMK A01 T03740063  RH  015%=      5-min Rain = 0
KPG1 242101Z 08009KT 37/07 A2986 RMK A01 T03730066  RH  015%=      5-min Rain = 0
KPG1 242102Z 08008KT 37/06 A2986 RMK A01 T03730062  RH  015%=      5-min Rain = 0
KPG1 242103Z 07006KT 37/06 A2985 RMK A01 T03710063  RH  015%=      5-min Rain = 0
KPG1 242104Z 05007KT 37/06 A2985 RMK A01 T03710062  RH  015%=      5-min Rain = 0
KPG1 242105Z 05008KT 37/06 A2985 RMK A01 T03710060  RH  015%=      5-min Rain = 0
KPG1 242106Z 03007KT 37/06 A2985 RMK A01 T03710063  RH  015%=      5-min Rain = 0
KPG1 242107Z 03006KT 37/07 A2985 RMK A01 T03730067  RH  015%=      5-min Rain = 0
KPG1 242108Z 05010KT 37/07 A2985 RMK A01 T03740072  RH  016%=      5-min Rain = 0
KPG1 242109Z 06009KT 38/07 A2985 RMK A01 T03750073  RH  016%=      5-min Rain = 0
KPG1 242110Z 05012KT 37/07 A2985 RMK A01 T03740071  RH  016%=      5-min Rain = 0
KPG1 242111Z 06010KT 37/07 A2985 RMK A01 T03730069  RH  016%=      5-min Rain = 0
KPG1 242112Z 07007KT 37/07 A2985 RMK A01 T03710068  RH  016%=      5-min Rain = 0
KPG1 242113Z 07007KT 37/07 A2985 RMK A01 T03700074  RH  016%=      5-min Rain = 0
KPG1 242114Z 05007KT 37/07 A2985 RMK A01 T03720070  RH  016%=      5-min Rain = 0
KPG1 242115Z 06006KT 37/07 A2985 RMK A01 T03700065  RH  015%=      5-min Rain = 0
KPG1 242116Z 06005KT 37/07 A2985 RMK A01 T03680070  RH  016%=      5-min Rain = 0
KPG1 242117Z 08008KT 37/08 A2985 RMK A01 T03690078  RH  017%=      5-min Rain = 0
KPG1 242118Z 10006KT 37/08 A2985 RMK A01 T03740084  RH  017%=      5-min Rain = 0
KPG1 242119Z 10005KT 38/08 A2985 RMK A01 T03750076  RH  016%=      5-min Rain = 0
KPG1 242120Z 07004KT 37/08 A2985 RMK A01 T03730081  RH  017%=      5-min Rain = 0
KPG1 242121Z 10007G12KT 37/08 A2985 RMK A01 T03740078  RH  017%=      5-min Rain = 0
KPG1 242122Z 10010KT 37/08 A2985 RMK A01 T03740079  RH  017%=      5-min Rain = 0
KPG1 242123Z 08009G14KT 37/08 A2985 RMK A01 T03720076  RH  016%=      5-min Rain = 0
KPG1 242124Z 09007G12KT 37/08 A2985 RMK A01 T03690075  RH  017%=      5-min Rain = 0
KPG1 242125Z 09009KT 37/08 A2985 RMK A01 T03690078  RH  017%=      5-min Rain = 0
KPG1 242126Z 09006KT 37/08 A2985 RMK A01 T03690079  RH  017%=      5-min Rain = 0
KPG1 242127Z 08008KT 37/08 A2985 RMK A01 T03690078  RH  017%=      5-min Rain = 0
KPG1 242128Z 08007KT 37/08 A2985 RMK A01 T03690080  RH  017%=      5-min Rain = 0
KPG1 242129Z 09005KT 37/08 A2985 RMK A01 T03690077  RH  017%=      5-min Rain = 0
KPG1 242130Z 11003KT 37/08 A2985 RMK A01 T03680077  RH  017%=      5-min Rain = 0
KPG1 242131Z 00003KT 37/08 A2984 RMK A01 T03690083  RH  018%=      5-min Rain = 0
KPG1 242132Z 34002KT 37/08 A2984 RMK A01 T03720080  RH  017%=      5-min Rain = 0
KPG1 242133Z 10002KT 37/09 A2984 RMK A01 T03740085  RH  017%=      5-min Rain = 0
KPG1 242134Z 02005KT 38/09 A2984 RMK A01 T03760086  RH  017%=      5-min Rain = 0
KPG1 242135Z 01006KT 38/08 A2984 RMK A01 T03770083  RH  017%=      5-min Rain = 0
KPG1 242136Z 05007KT 38/09 A2984 RMK A01 T03770088  RH  017%=      5-min Rain = 0
KPG1 242137Z 07009KT 38/08 A2984 RMK A01 T03780083  RH  017%=      5-min Rain = 0
KPG1 242138Z 08010KT 38/08 A2984 RMK A01 T03750078  RH  016%=      5-min Rain = 0
KPG1 242139Z 06009KT 37/08 A2984 RMK A01 T03710081  RH  017%=      5-min Rain = 0
KPG1 242140Z 05007KT 37/08 A2984 RMK A01 T03730081  RH  017%=      5-min Rain = 0
KPG1 242141Z 04006KT 37/08 A2984 RMK A01 T03730076  RH  016%=      5-min Rain = 0
KPG1 242142Z 03006KT 38/09 A2984 RMK A01 T03750087  RH  017%=      5-min Rain = 0
KPG1 242143Z 06011KT 38/08 A2984 RMK A01 T03770083  RH  017%=      5-min Rain = 0
KPG1 242144Z 07010KT 38/08 A2984 RMK A01 T03750078  RH  016%=      5-min Rain = 0
KPG1 242145Z 05008KT 37/08 A2984 RMK A01 T03710075  RH  016%=      5-min Rain = 0
KPG1 242146Z 05004KT 37/07 A2984 RMK A01 T03680071  RH  016%=      5-min Rain = 0
KPG1 242147Z 08002KT 37/07 A2984 RMK A01 T03670074  RH  017%=      5-min Rain = 0
KPG1 242148Z 10002KT 37/08 A2984 RMK A01 T03680078  RH  017%=      5-min Rain = 0
KPG1 242149Z 06005KT 37/08 A2984 RMK A01 T03710084  RH  017%=      5-min Rain = 0
KPG1 242150Z 03007KT 37/08 A2984 RMK A01 T03740084  RH  017%=      5-min Rain = 0
KPG1 242151Z 04007KT 38/08 A2984 RMK A01 T03750084  RH  017%=      5-min Rain = 0
KPG1 242152Z 06008KT 38/08 A2984 RMK A01 T03750081  RH  017%=      5-min Rain = 0
KPG1 242153Z 07010KT 37/08 A2984 RMK A01 T03720078  RH  017%=      5-min Rain = 0
KPG1 242154Z 06008KT 37/08 A2984 RMK A01 T03690078  RH  017%=      5-min Rain = 0
KPG1 242155Z 06009KT 37/08 A2984 RMK A01 T03690081  RH  017%=      5-min Rain = 0
KPG1 242156Z 07008KT 37/08 A2984 RMK A01 T03690080  RH  017%=      5-min Rain = 0
KPG1 242157Z 07008KT 37/08 A2984 RMK A01 T03680076  RH  017%=      5-min Rain = 0
KPG1 242158Z 07005KT 37/08 A2984 RMK A01 T03670078  RH  017%=      5-min Rain = 0
KPG1 242159Z 06005KT 37/08 A2984 RMK A01 T03670081  RH  017%=      5-min Rain = 0
KPG1 242200Z 03005KT 37/08 A2984 RMK A01 T03700083  RH  018%=      5-min Rain = 0
KPG1 242201Z 02005KT 37/09 A2984 RMK A01 T03730088  RH  018%=      5-min Rain = 0
KPG1 242202Z 01006KT 38/08 A2984 RMK A01 T03760082  RH  017%=      5-min Rain = 0
KPG1 242203Z 34004KT 38/08 A2984 RMK A01 T03760078  RH  016%=      5-min Rain = 0
KPG1 242204Z 00003KT 37/08 A2984 RMK A01 T03730077  RH  017%=      5-min Rain = 0
KPG1 242205Z 06003KT 37/09 A2984 RMK A01 T03720090  RH  018%=      5-min Rain = 0
KPG1 242206Z 06006KT 38/09 A2984 RMK A01 T03750085  RH  017%=      5-min Rain = 0
KPG1 242207Z 07009KT 38/08 A2984 RMK A01 T03750082  RH  017%=      5-min Rain = 0
KPG1 242208Z 07010KT 37/08 A2983 RMK A01 T03730080  RH  017%=      5-min Rain = 0
KPG1 242209Z 07008KT 37/08 A2984 RMK A01 T03710081  RH  017%=      5-min Rain = 0
KPG1 242210Z 07006KT 37/08 A2983 RMK A01 T03700079  RH  017%=      5-min Rain = 0
KPG1 242211Z 09005KT 37/08 A2983 RMK A01 T03690082  RH  017%=      5-min Rain = 0
KPG1 242212Z 09005KT 37/08 A2983 RMK A01 T03690082  RH  017%=      5-min Rain = 0
KPG1 242213Z 08004KT 37/08 A2983 RMK A01 T03690078  RH  017%=      5-min Rain = 0
KPG1 242214Z 05003KT 37/08 A2983 RMK A01 T03680084  RH  018%=      5-min Rain = 0
KPG1 242215Z 02006KT 37/08 A2983 RMK A01 T03700084  RH  018%=      5-min Rain = 0
KPG1 242216Z 02004KT 37/08 A2983 RMK A01 T03720078  RH  017%=      5-min Rain = 0
KPG1 242217Z 01003KT 37/08 A2983 RMK A01 T03720080  RH  017%=      5-min Rain = 0
KPG1 242218Z 01004KT 37/09 A2983 RMK A01 T03740087  RH  018%=      5-min Rain = 0
KPG1 242219Z 07006G11KT 38/09 A2983 RMK A01 T03760089  RH  018%=      5-min Rain = 0
KPG1 242220Z 07011KT 38/08 A2983 RMK A01 T03760082  RH  017%=      5-min Rain = 0
KPG1 242221Z 06010KT 37/08 A2983 RMK A01 T03720081  RH  017%=      5-min Rain = 0
KPG1 242222Z 06007KT 37/08 A2983 RMK A01 T03700079  RH  017%=      5-min Rain = 0
KPG1 242223Z 07007KT 37/08 A2983 RMK A01 T03690081  RH  017%=      5-min Rain = 0
KPG1 242224Z 08009KT 37/09 A2983 RMK A01 T03700086  RH  018%=      5-min Rain = 0
KPG1 242225Z 08008KT 37/08 A2983 RMK A01 T03710084  RH  017%=      5-min Rain = 0
KPG1 242226Z 07009KT 37/08 A2983 RMK A01 T03700082  RH  017%=      5-min Rain = 0
KPG1 242227Z 08007KT 37/08 A2983 RMK A01 T03700084  RH  018%=      5-min Rain = 0
KPG1 242228Z 09004KT 37/08 A2983 RMK A01 T03690080  RH  017%=      5-min Rain = 0
KPG1 242229Z 10003KT 37/08 A2983 RMK A01 T03690079  RH  017%=      5-min Rain = 0
KPG1 242230Z 09005KT 37/09 A2983 RMK A01 T03680085  RH  018%=      5-min Rain = 0
KPG1 242231Z 08004KT 37/08 A2983 RMK A01 T03680077  RH  017%=      5-min Rain = 0
KPG1 242232Z 07003KT 37/08 A2983 RMK A01 T03670081  RH  017%=      5-min Rain = 0
KPG1 242233Z 06007KT 37/08 A2983 RMK A01 T03680083  RH  018%=      5-min Rain = 0
KPG1 242234Z 07007KT 37/09 A2983 RMK A01 T03690085  RH  018%=      5-min Rain = 0
KPG1 242235Z 07006KT 37/08 A2983 RMK A01 T03710082  RH  017%=      5-min Rain = 0
KPG1 242236Z 06004KT 37/08 A2983 RMK A01 T03690079  RH  017%=      5-min Rain = 0
KPG1 242237Z 05007KT 37/08 A2982 RMK A01 T03680081  RH  017%=      5-min Rain = 0
KPG1 242238Z 03007KT 37/08 A2982 RMK A01 T03680082  RH  018%=      5-min Rain = 0
KPG1 242239Z 05006KT 37/08 A2982 RMK A01 T03680082  RH  017%=      5-min Rain = 0
KPG1 242240Z 06006KT 37/09 A2982 RMK A01 T03690085  RH  018%=      5-min Rain = 0
KPG1 242241Z 06010KT 37/08 A2982 RMK A01 T03700084  RH  018%=      5-min Rain = 0
KPG1 242242Z 04010KT 37/08 A2982 RMK A01 T03690083  RH  018%=      5-min Rain = 0
KPG1 242243Z 07010KT 37/09 A2982 RMK A01 T03690085  RH  018%=      5-min Rain = 0
KPG1 242244Z 07007KT 37/08 A2982 RMK A01 T03690083  RH  018%=      5-min Rain = 0
KPG1 242245Z 04008KT 37/09 A2982 RMK A01 T03700091  RH  018%=      5-min Rain = 0
KPG1 242246Z 06009KT 37/09 A2982 RMK A01 T03720090  RH  018%=      5-min Rain = 0
KPG1 242247Z 07009KT 37/08 A2982 RMK A01 T03720082  RH  017%=      5-min Rain = 0
KPG1 242248Z 09008KT 37/08 A2982 RMK A01 T03700081  RH  017%=      5-min Rain = 0
KPG1 242249Z 08006KT 37/09 A2982 RMK A01 T03680086  RH  018%=      5-min Rain = 0
KPG1 242250Z 07012KT 37/09 A2982 RMK A01 T03700085  RH  018%=      5-min Rain = 0
KPG1 242251Z 07009KT 37/08 A2982 RMK A01 T03690084  RH  018%=      5-min Rain = 0
KPG1 242252Z 06011KT 37/09 A2982 RMK A01 T03680086  RH  018%=      5-min Rain = 0
KPG1 242253Z 06011KT 37/08 A2982 RMK A01 T03680082  RH  017%=      5-min Rain = 0
KPG1 242254Z 06010KT 37/08 A2982 RMK A01 T03680082  RH  018%=      5-min Rain = 0
KPG1 242255Z 07010KT 37/08 A2982 RMK A01 T03670082  RH  018%=      5-min Rain = 0
KPG1 242256Z 08009KT 37/08 A2982 RMK A01 T03670081  RH  018%=      5-min Rain = 0
KPG1 242257Z 07006KT 37/08 A2982 RMK A01 T03660083  RH  018%=      5-min Rain = 0
KPG1 242258Z 08006KT 37/09 A2982 RMK A01 T03660085  RH  018%=      5-min Rain = 0
KPG1 242259Z 06005KT 37/09 A2982 RMK A01 T03670086  RH  018%=      5-min Rain = 0
KPG1 242300Z 06010KT 37/09 A2982 RMK A01 T03680086  RH  018%=      5-min Rain = 0
KPG1 242301Z 07009KT 37/08 A2982 RMK A01 T03680083  RH  018%=      5-min Rain = 0
KPG1 242302Z 07006KT 37/09 A2982 RMK A01 T03680085  RH  018%=      5-min Rain = 0
KPG1 242303Z 08008KT 37/09 A2982 RMK A01 T03680086  RH  018%=      5-min Rain = 0
KPG1 242304Z 06010KT 37/09 A2982 RMK A01 T03680086  RH  018%=      5-min Rain = 0
KPG1 242305Z 05008KT 37/09 A2982 RMK A01 T03690089  RH  018%=      5-min Rain = 0
KPG1 242306Z 05010KT 37/09 A2982 RMK A01 T03700089  RH  018%=      5-min Rain = 0
KPG1 242307Z 06010KT 37/09 A2982 RMK A01 T03710088  RH  018%=      5-min Rain = 0
KPG1 242308Z 07012KT 37/09 A2982 RMK A01 T03710085  RH  018%=      5-min Rain = 0
KPG1 242309Z 07013KT 37/08 A2982 RMK A01 T03700083  RH  017%=      5-min Rain = 0
KPG1 242310Z 07011KT 37/08 A2982 RMK A01 T03690081  RH  017%=      5-min Rain = 0
KPG1 242311Z 06007KT 37/08 A2982 RMK A01 T03670078  RH  017%=      5-min Rain = 0
KPG1 242312Z 04006KT 37/09 A2982 RMK A01 T03660085  RH  018%=      5-min Rain = 0
KPG1 242313Z 05008KT 37/09 A2982 RMK A01 T03680087  RH  018%=      5-min Rain = 0
KPG1 242314Z 07008KT 37/09 A2982 RMK A01 T03690087  RH  018%=      5-min Rain = 0
KPG1 242315Z 08008KT 37/09 A2982 RMK A01 T03700093  RH  019%=      5-min Rain = 0
KPG1 242316Z 07009KT 37/09 A2982 RMK A01 T03710087  RH  018%=      5-min Rain = 0
KPG1 242317Z 05012KT 37/09 A2982 RMK A01 T03700092  RH  019%=      5-min Rain = 0
KPG1 242318Z 05013KT 37/09 A2982 RMK A01 T03700087  RH  018%=      5-min Rain = 0
KPG1 242319Z 05012KT 37/09 A2981 RMK A01 T03700088  RH  018%=      5-min Rain = 0
KPG1 242320Z 06009KT 37/09 A2981 RMK A01 T03690087  RH  018%=      5-min Rain = 0
KPG1 242321Z 05011KT 37/09 A2981 RMK A01 T03690089  RH  018%=      5-min Rain = 0
KPG1 242322Z 06012KT 37/09 A2982 RMK A01 T03690085  RH  018%=      5-min Rain = 0
KPG1 242323Z 07011KT 37/08 A2982 RMK A01 T03680083  RH  018%=      5-min Rain = 0
KPG1 242324Z 06013KT 37/09 A2982 RMK A01 T03670085  RH  018%=      5-min Rain = 0
KPG1 242325Z 06014KT 37/08 A2982 RMK A01 T03660084  RH  018%=      5-min Rain = 0
KPG1 242326Z 06016KT 37/08 A2981 RMK A01 T03660084  RH  018%=      5-min Rain = 0
KPG1 242327Z 07015KT 37/08 A2982 RMK A01 T03660082  RH  018%=      5-min Rain = 0
KPG1 242328Z 07013KT 37/08 A2981 RMK A01 T03650082  RH  018%=      5-min Rain = 0
KPG1 242329Z 06011KT 37/09 A2981 RMK A01 T03660086  RH  018%=      5-min Rain = 0
KPG1 242330Z 05010KT 37/08 A2981 RMK A01 T03660082  RH  018%=      5-min Rain = 0
KPG1 242331Z 06013KT 37/08 A2981 RMK A01 T03660083  RH  018%=      5-min Rain = 0
KPG1 242332Z 06012G17KT 37/09 A2981 RMK A01 T03660085  RH  018%=      5-min Rain = 0
KPG1 242333Z 06014KT 37/09 A2981 RMK A01 T03650086  RH  018%=      5-min Rain = 0
KPG1 242334Z 06016KT 37/09 A2981 RMK A01 T03660085  RH  018%=      5-min Rain = 0
KPG1 242335Z 07014KT 37/09 A2981 RMK A01 T03660087  RH  018%=      5-min Rain = 0
KPG1 242336Z 06013KT 37/09 A2981 RMK A01 T03660085  RH  018%=      5-min Rain = 0
KPG1 242337Z 07013G18KT 37/09 A2981 RMK A01 T03660087  RH  018%=      5-min Rain = 0
KPG1 242338Z 11018G25KT 37/10 A2982 RMK A01 T03660095  RH  019%=      5-min Rain = 0
KPG1 242339Z 12022G29KT 36/13 A2982 RMK A01 T03590128  RH  025%=      5-min Rain = 0
KPG1 242340Z 11015KT 35/14 A2983 RMK A01 T03480135  RH  028%=      5-min Rain = 0
KPG1 242341Z 12016G24KT 34/14 A2983 RMK A01 T03420138  RH  029%=      5-min Rain = 0
KPG1 242342Z 11020KT 34/14 A2983 RMK A01 T03400139  RH  030%=      5-min Rain = 0
KPG1 242343Z 10018G25KT 34/14 A2983 RMK A01 T03380139  RH  030%=      5-min Rain = 0
KPG1 242344Z 11013G20KT 34/14 A2983 RMK A01 T03360138  RH  030%=      5-min Rain = 0
KPG1 242345Z 11018G24KT 34/14 A2983 RMK A01 T03350135  RH  030%=      5-min Rain = 0
KPG1 242346Z 11016G23KT 34/13 A2983 RMK A01 T03350134  RH  030%=      5-min Rain = 0
KPG1 242347Z 11015KT 34/13 A2983 RMK A01 T03360133  RH  029%=      5-min Rain = 0
KPG1 242348Z 10014G19KT 34/13 A2983 RMK A01 T03360132  RH  029%=      5-min Rain = 0
KPG1 242349Z 10015G20KT 34/13 A2983 RMK A01 T03350131  RH  029%=      5-min Rain = 0
KPG1 242350Z 11014KT 33/13 A2983 RMK A01 T03340127  RH  029%=      5-min Rain = 0
KPG1 242351Z 11014KT 33/13 A2983 RMK A01 T03320128  RH  029%=      5-min Rain = 0
KPG1 242352Z 10013KT 33/13 A2983 RMK A01 T03310128  RH  029%=      5-min Rain = 0
KPG1 242353Z 08013KT 33/13 A2983 RMK A01 T03300128  RH  029%=      5-min Rain = 0
KPG1 242354Z 10011KT 33/13 A2983 RMK A01 T03300126  RH  029%=      5-min Rain = 0
KPG1 242355Z 11012KT 33/13 A2983 RMK A01 T03290126  RH  029%=      5-min Rain = 0
KPG1 242356Z 09011KT 33/13 A2984 RMK A01 T03290126  RH  029%=      5-min Rain = 0
KPG1 242357Z 11010KT 33/13 A2984 RMK A01 T03290126  RH  029%=      5-min Rain = 0
KPG1 242358Z 11011KT 33/13 A2984 RMK A01 T03300127  RH  029%=      5-min Rain = 0
KPG1 242359Z 10013KT 33/13 A2984 RMK A01 T03300126  RH  029%=      5-min Rain = 0
KPG1 250000Z 09013KT 33/12 A2984 RMK A01 T03280124  RH  029%=      5-min Rain = 0
KPG1 250001Z 12012KT 33/13 A2984 RMK A01 T03260126  RH  030%=      5-min Rain = 0
KPG1 250002Z 11015G20KT 33/13 A2984 RMK A01 T03260125  RH  030%=      5-min Rain = 0
KPG1 250003Z 11013KT 32/13 A2984 RMK A01 T03240125  RH  030%=      5-min Rain = 0
KPG1 250004Z 11014KT 32/13 A2984 RMK A01 T03230125  RH  030%=      5-min Rain = 0
KPG1 250005Z 11013G18KT 32/12 A2984 RMK A01 T03220124  RH  030%=      5-min Rain = 0
KPG1 250006Z 10009KT 32/13 A2984 RMK A01 T03210125  RH  030%=      5-min Rain = 0
KPG1 250007Z 10009KT 32/13 A2984 RMK A01 T03220125  RH  030%=      5-min Rain = 0
KPG1 250008Z 10013KT 32/13 A2984 RMK A01 T03220125  RH  030%=      5-min Rain = 0
KPG1 250009Z 09012KT 32/12 A2984 RMK A01 T03220123  RH  030%=      5-min Rain = 0
KPG1 250010Z 09012G17KT 32/12 A2984 RMK A01 T03210123  RH  030%=      5-min Rain = 0
KPG1 250011Z 09013KT 32/12 A2984 RMK A01 T03200123  RH  030%=      5-min Rain = 0
KPG1 250012Z 09011KT 32/12 A2984 RMK A01 T03200124  RH  030%=      5-min Rain = 0
KPG1 250013Z 09011KT 32/13 A2984 RMK A01 T03210126  RH  030%=      5-min Rain = 0
KPG1 250014Z 09008KT 32/13 A2984 RMK A01 T03230127  RH  030%=      5-min Rain = 0
KPG1 250015Z 09011KT 33/13 A2983 RMK A01 T03250128  RH  030%=      5-min Rain = 0
KPG1 250016Z 08012KT 33/13 A2983 RMK A01 T03260128  RH  030%=      5-min Rain = 0
KPG1 250017Z 09012KT 33/13 A2983 RMK A01 T03270128  RH  030%=      5-min Rain = 0
KPG1 250018Z 09010KT 33/13 A2983 RMK A01 T03260126  RH  030%=      5-min Rain = 0
KPG1 250019Z 10012KT 33/13 A2983 RMK A01 T03270127  RH  030%=      5-min Rain = 0
KPG1 250020Z 11009G14KT 33/13 A2983 RMK A01 T03270128  RH  030%=      5-min Rain = 0
KPG1 250021Z 10006G13KT 33/13 A2983 RMK A01 T03280131  RH  030%=      5-min Rain = 0
KPG1 250022Z 12010G15KT 33/13 A2983 RMK A01 T03300130  RH  030%=      5-min Rain = 0
KPG1 250023Z 12008KT 33/13 A2983 RMK A01 T03300132  RH  030%=      5-min Rain = 0
KPG1 250024Z 12011KT 33/13 A2983 RMK A01 T03310133  RH  030%=      5-min Rain = 0
KPG1 250025Z 13011KT 33/13 A2983 RMK A01 T03300131  RH  030%=      5-min Rain = 0
KPG1 250026Z 13011KT 33/13 A2983 RMK A01 T03280132  RH  030%=      5-min Rain = 0
KPG1 250027Z 13010KT 33/13 A2983 RMK A01 T03270132  RH  031%=      5-min Rain = 0
KPG1 250028Z 13010KT 33/13 A2983 RMK A01 T03260130  RH  030%=      5-min Rain = 0
KPG1 250029Z 12009KT 33/13 A2983 RMK A01 T03250130  RH  031%=      5-min Rain = 0
KPG1 250030Z 11008KT 33/13 A2983 RMK A01 T03260132  RH  031%=      5-min Rain = 0
KPG1 250031Z 12010KT 33/13 A2983 RMK A01 T03270131  RH  030%=      5-min Rain = 0
KPG1 250032Z 10010KT 33/13 A2983 RMK A01 T03260130  RH  030%=      5-min Rain = 0
KPG1 250033Z 09010KT 33/13 A2983 RMK A01 T03270128  RH  030%=      5-min Rain = 0
KPG1 250034Z 09010KT 33/13 A2983 RMK A01 T03260126  RH  030%=      5-min Rain = 0
KPG1 250035Z 09009KT 32/13 A2983 RMK A01 T03240128  RH  030%=      5-min Rain = 0
KPG1 250036Z 08012KT 32/13 A2983 RMK A01 T03230132  RH  031%=      5-min Rain = 0
KPG1 250037Z 07011KT 32/13 A2983 RMK A01 T03200129  RH  031%=      5-min Rain = 0
KPG1 250038Z 08010KT 32/13 A2984 RMK A01 T03180130  RH  032%=      5-min Rain = 0
KPG1 250039Z 08010KT 32/13 A2984 RMK A01 T03180130  RH  032%=      5-min Rain = 0
KPG1 250040Z 08010KT 32/13 A2984 RMK A01 T03180131  RH  032%=      5-min Rain = 0
KPG1 250041Z 08008KT 32/13 A2984 RMK A01 T03170131  RH  032%=      5-min Rain = 0
KPG1 250042Z 08010KT 32/13 A2984 RMK A01 T03170130  RH  032%=      5-min Rain = 0
KPG1 250043Z 08011KT 32/13 A2983 RMK A01 T03170125  RH  031%=      5-min Rain = 0
KPG1 250044Z 08009KT 32/12 A2983 RMK A01 T03170121  RH  030%=      5-min Rain = 0
KPG1 250045Z 07011KT 32/13 A2983 RMK A01 T03180127  RH  031%=      5-min Rain = 0
KPG1 250046Z 07012KT 32/12 A2983 RMK A01 T03160124  RH  031%=      5-min Rain = 0
KPG1 250047Z 08011KT 31/12 A2984 RMK A01 T03140124  RH  031%=      5-min Rain = 0
KPG1 250048Z 08011KT 31/12 A2984 RMK A01 T03140122  RH  031%=      5-min Rain = 0
KPG1 250049Z 10012KT 31/12 A2984 RMK A01 T03130119  RH  030%=      5-min Rain = 0
KPG1 250050Z 11011KT 31/12 A2983 RMK A01 T03140117  RH  030%=      5-min Rain = 0
KPG1 250051Z 09009KT 32/12 A2984 RMK A01 T03150122  RH  031%=      5-min Rain = 0
KPG1 250052Z 09010KT 32/12 A2984 RMK A01 T03150121  RH  030%=      5-min Rain = 0
KPG1 250053Z 09009KT 32/12 A2984 RMK A01 T03150122  RH  031%=      5-min Rain = 0
KPG1 250054Z 09011KT 32/12 A2984 RMK A01 T03150120  RH  030%=      5-min Rain = 0
KPG1 250055Z 09011KT 31/12 A2984 RMK A01 T03140119  RH  030%=      5-min Rain = 0
KPG1 250056Z 09015KT 31/11 A2984 RMK A01 T03140112  RH  029%=      5-min Rain = 0
KPG1 250057Z 10011KT 32/11 A2984 RMK A01 T03150108  RH  028%=      5-min Rain = 0
KPG1 250058Z 11015G20KT 32/10 A2983 RMK A01 T03170104  RH  027%=      5-min Rain = 0
KPG1 250059Z 10013KT 32/10 A2984 RMK A01 T03190101  RH  026%=      5-min Rain = 0
KPG1 250100Z 11016KT 32/10 A2983 RMK A01 T03200098  RH  025%=      5-min Rain = 0
KPG1 250101Z 10013G18KT 32/10 A2983 RMK A01 T03200095  RH  025%=      5-min Rain = 0
KPG1 250102Z 12017KT 32/09 A2983 RMK A01 T03210094  RH  025%=      5-min Rain = 0
KPG1 250103Z 12014G22KT 32/09 A2983 RMK A01 T03210093  RH  025%=      5-min Rain = 0
KPG1 250104Z 11015KT 32/10 A2983 RMK A01 T03210095  RH  025%=      5-min Rain = 0
KPG1 250105Z 11011KT 32/09 A2983 RMK A01 T03220093  RH  024%=      5-min Rain = 0
KPG1 250106Z 10010KT 32/09 A2983 RMK A01 T03220093  RH  024%=      5-min Rain = 0
KPG1 250107Z 11013G18KT 32/09 A2983 RMK A01 T03220093  RH  024%=      5-min Rain = 0
KPG1 250108Z 11012G19KT 32/09 A2983 RMK A01 T03220093  RH  024%=      5-min Rain = 0
KPG1 250109Z 11011G17KT 32/09 A2983 RMK A01 T03220093  RH  024%=      5-min Rain = 0
KPG1 250110Z 13008KT 32/09 A2983 RMK A01 T03210094  RH  025%=      5-min Rain = 0
KPG1 250111Z 12011KT 32/09 A2983 RMK A01 T03210093  RH  024%=      5-min Rain = 0
KPG1 250112Z 11011G17KT 32/09 A2983 RMK A01 T03210093  RH  024%=      5-min Rain = 0
KPG1 250113Z 11014G19KT 32/09 A2983 RMK A01 T03210091  RH  024%=      5-min Rain = 0
KPG1 250114Z 11013G18KT 32/09 A2983 RMK A01 T03220091  RH  024%=      5-min Rain = 0
KPG1 250115Z 12017KT 32/09 A2983 RMK A01 T03220089  RH  024%=      5-min Rain = 0
KPG1 250116Z 12012G17KT 32/09 A2983 RMK A01 T03220089  RH  024%=      5-min Rain = 0
KPG1 250117Z 13013G18KT 32/09 A2983 RMK A01 T03220090  RH  024%=      5-min Rain = 0
KPG1 250118Z 13012G17KT 32/09 A2983 RMK A01 T03210088  RH  024%=      5-min Rain = 0
KPG1 250119Z 13010KT 32/09 A2983 RMK A01 T03210089  RH  024%=      5-min Rain = 0
KPG1 250120Z 13011KT 32/09 A2983 RMK A01 T03200089  RH  024%=      5-min Rain = 0
KPG1 250121Z 12009KT 32/09 A2983 RMK A01 T03200090  RH  024%=      5-min Rain = 0
KPG1 250122Z 12008KT 32/09 A2983 RMK A01 T03200091  RH  024%=      5-min Rain = 0
KPG1 250123Z 12010KT 32/09 A2983 RMK A01 T03200090  RH  024%=      5-min Rain = 0
KPG1 250124Z 12010KT 32/09 A2983 RMK A01 T03200086  RH  024%=      5-min Rain = 0
KPG1 250125Z 11008KT 32/09 A2983 RMK A01 T03210086  RH  023%=      5-min Rain = 0
KPG1 250126Z 11007KT 32/09 A2982 RMK A01 T03220087  RH  023%=      5-min Rain = 0
KPG1 250127Z 11010KT 32/09 A2982 RMK A01 T03220087  RH  023%=      5-min Rain = 0
KPG1 250128Z 11010KT 32/09 A2982 RMK A01 T03220086  RH  023%=      5-min Rain = 0
KPG1 250129Z 11010KT 32/09 A2982 RMK A01 T03210086  RH  023%=      5-min Rain = 0
KPG1 250130Z 11008KT 32/09 A2982 RMK A01 T03210087  RH  024%=      5-min Rain = 0
KPG1 250131Z 11006KT 32/09 A2982 RMK A01 T03200088  RH  024%=      5-min Rain = 0
KPG1 250132Z 11007KT 32/09 A2982 RMK A01 T03190087  RH  024%=      5-min Rain = 0
KPG1 250133Z 11009KT 32/08 A2982 RMK A01 T03190083  RH  023%=      5-min Rain = 0
KPG1 250134Z 11007KT 32/08 A2982 RMK A01 T03210082  RH  023%=      5-min Rain = 0
KPG1 250135Z 12008KT 32/08 A2982 RMK A01 T03220081  RH  023%=      5-min Rain = 0
KPG1 250136Z 11006KT 32/08 A2982 RMK A01 T03220081  RH  022%=      5-min Rain = 0
KPG1 250137Z 11006KT 32/08 A2982 RMK A01 T03230081  RH  022%=      5-min Rain = 0
KPG1 250138Z 11008KT 32/08 A2982 RMK A01 T03230079  RH  022%=      5-min Rain = 0
KPG1 250139Z 10006KT 32/08 A2982 RMK A01 T03230079  RH  022%=      5-min Rain = 0
KPG1 250140Z 11006KT 32/08 A2982 RMK A01 T03230078  RH  022%=      5-min Rain = 0
KPG1 250141Z 11005KT 32/08 A2982 RMK A01 T03240077  RH  022%=      5-min Rain = 0
KPG1 250142Z 10005KT 32/08 A2982 RMK A01 T03240078  RH  022%=      5-min Rain = 0
KPG1 250143Z 10005KT 32/08 A2982 RMK A01 T03240079  RH  022%=      5-min Rain = 0
KPG1 250144Z 10005KT 32/08 A2982 RMK A01 T03240077  RH  022%=      5-min Rain = 0
KPG1 250145Z 08004KT 32/08 A2982 RMK A01 T03240079  RH  022%=      5-min Rain = 0
KPG1 250146Z 07004KT 32/08 A2982 RMK A01 T03230082  RH  022%=      5-min Rain = 0
KPG1 250147Z 07003KT 32/08 A2982 RMK A01 T03220083  RH  023%=      5-min Rain = 0
KPG1 250148Z 04004KT 32/08 A2982 RMK A01 T03200084  RH  023%=      5-min Rain = 0
KPG1 250149Z 01006KT 32/09 A2982 RMK A01 T03180085  RH  024%=      5-min Rain = 0
KPG1 250150Z 35007KT 32/09 A2982 RMK A01 T03150090  RH  025%=      5-min Rain = 0
KPG1 250151Z 00007KT 31/09 A2982 RMK A01 T03110093  RH  026%=      5-min Rain = 0
KPG1 250152Z 00007KT 31/09 A2982 RMK A01 T03080094  RH  026%=      5-min Rain = 0
KPG1 250153Z 36009KT 31/09 A2982 RMK A01 T03060093  RH  027%=      5-min Rain = 0
KPG1 250154Z 34010KT 31/09 A2982 RMK A01 T03050091  RH  027%=      5-min Rain = 0
KPG1 250155Z 35008KT 30/09 A2982 RMK A01 T03040090  RH  026%=      5-min Rain = 0
KPG1 250156Z 36007KT 31/09 A2982 RMK A01 T03050092  RH  027%=      5-min Rain = 0
KPG1 250157Z 35011KT 30/09 A2982 RMK A01 T03040092  RH  027%=      5-min Rain = 0
KPG1 250158Z 35012KT 30/09 A2982 RMK A01 T03040092  RH  027%=      5-min Rain = 0
KPG1 250159Z 35012KT 30/09 A2982 RMK A01 T03030090  RH  027%=      5-min Rain = 0
KPG1 250200Z 35009KT 30/09 A2982 RMK A01 T03040091  RH  027%=      5-min Rain = 0
KPG1 250201Z 35011KT 30/09 A2982 RMK A01 T03040090  RH  026%=      5-min Rain = 0
KPG1 250202Z 36012KT 30/09 A2982 RMK A01 T03040091  RH  027%=      5-min Rain = 0
KPG1 250203Z 35011KT 30/09 A2982 RMK A01 T03040089  RH  026%=      5-min Rain = 0
KPG1 250204Z 35012KT 30/09 A2982 RMK A01 T03040091  RH  027%=      5-min Rain = 0
KPG1 250205Z 35013KT 30/09 A2982 RMK A01 T03030093  RH  027%=      5-min Rain = 0
KPG1 250206Z 35011KT 30/09 A2982 RMK A01 T03030093  RH  027%=      5-min Rain = 0
KPG1 250207Z 35012KT 30/09 A2982 RMK A01 T03010094  RH  027%=      5-min Rain = 0
KPG1 250208Z 35010KT 30/09 A2982 RMK A01 T03010090  RH  027%=      5-min Rain = 0
KPG1 250209Z 36010KT 30/09 A2982 RMK A01 T03010089  RH  027%=      5-min Rain = 0
KPG1 250210Z 01009KT 30/09 A2982 RMK A01 T03020088  RH  026%=      5-min Rain = 0
KPG1 250211Z 01010KT 30/09 A2982 RMK A01 T03030086  RH  026%=      5-min Rain = 0
KPG1 250212Z 02011KT 30/09 A2982 RMK A01 T03030086  RH  026%=      5-min Rain = 0
KPG1 250213Z 05009KT 30/09 A2982 RMK A01 T03030087  RH  026%=      5-min Rain = 0
KPG1 250214Z 02009KT 30/09 A2982 RMK A01 T03030085  RH  026%=      5-min Rain = 0
KPG1 250215Z 01007KT 30/09 A2982 RMK A01 T03030085  RH  026%=      5-min Rain = 0
KPG1 250216Z 02009KT 30/09 A2982 RMK A01 T03030087  RH  026%=      5-min Rain = 0
KPG1 250217Z 02007KT 30/09 A2982 RMK A01 T03020087  RH  026%=      5-min Rain = 0
KPG1 250218Z 01008KT 30/09 A2982 RMK A01 T03010090  RH  027%=      5-min Rain = 0
KPG1 250219Z 02009KT 30/09 A2982 RMK A01 T02990091  RH  027%=      5-min Rain = 0
KPG1 250220Z 01008KT 30/09 A2982 RMK A01 T02980087  RH  027%=      5-min Rain = 0
KPG1 250221Z 01008KT 30/09 A2982 RMK A01 T02990088  RH  027%=      5-min Rain = 0
KPG1 250222Z 02006KT 30/09 A2982 RMK A01 T02990088  RH  027%=      5-min Rain = 0
KPG1 250223Z 04008KT 30/09 A2982 RMK A01 T02990092  RH  028%=      5-min Rain = 0
KPG1 250224Z 04008KT 30/09 A2982 RMK A01 T02970094  RH  028%=      5-min Rain = 0
KPG1 250225Z 03008KT 30/10 A2982 RMK A01 T02950096  RH  029%=      5-min Rain = 0
KPG1 250226Z 03007KT 29/10 A2982 RMK A01 T02930097  RH  029%=      5-min Rain = 0
KPG1 250227Z 03007KT 29/10 A2982 RMK A01 T02920096  RH  030%=      5-min Rain = 0
KPG1 250228Z 01009KT 29/09 A2982 RMK A01 T02910092  RH  029%=      5-min Rain = 0
KPG1 250229Z 02009KT 29/09 A2982 RMK A01 T02920091  RH  028%=      5-min Rain = 0
KPG1 250230Z 02009KT 29/09 A2982 RMK A01 T02930091  RH  028%=      5-min Rain = 0
KPG1 250231Z 04010KT 29/09 A2982 RMK A01 T02930091  RH  028%=      5-min Rain = 0
KPG1 250232Z 04008KT 29/09 A2983 RMK A01 T02930094  RH  029%=      5-min Rain = 0
KPG1 250233Z 03008KT 29/10 A2983 RMK A01 T02930095  RH  029%=      5-min Rain = 0
KPG1 250234Z 03009KT 29/10 A2983 RMK A01 T02920096  RH  029%=      5-min Rain = 0
KPG1 250235Z 01011KT 29/10 A2983 RMK A01 T02910095  RH  029%=      5-min Rain = 0
KPG1 250236Z 01011KT 29/09 A2983 RMK A01 T02920092  RH  029%=      5-min Rain = 0
KPG1 250237Z 00010KT 29/09 A2983 RMK A01 T02930091  RH  028%=      5-min Rain = 0
KPG1 250238Z 36012KT 29/09 A2983 RMK A01 T02940092  RH  028%=      5-min Rain = 0
KPG1 250239Z 35013KT 29/09 A2983 RMK A01 T02940094  RH  029%=      5-min Rain = 0
KPG1 250240Z 00011KT 29/10 A2983 RMK A01 T02940096  RH  029%=      5-min Rain = 0
KPG1 250241Z 36011KT 29/10 A2983 RMK A01 T02930097  RH  029%=      5-min Rain = 0
KPG1 250242Z 01009KT 29/10 A2983 RMK A01 T02930095  RH  029%=      5-min Rain = 0
KPG1 250243Z 00011KT 29/10 A2983 RMK A01 T02930096  RH  029%=      5-min Rain = 0
KPG1 250244Z 36010KT 29/10 A2983 RMK A01 T02920098  RH  030%=      5-min Rain = 0
KPG1 250245Z 36011KT 29/10 A2983 RMK A01 T02910098  RH  030%=      5-min Rain = 0
KPG1 250246Z 01011KT 29/10 A2983 RMK A01 T02900098  RH  030%=      5-min Rain = 0
KPG1 250247Z 00012KT 29/10 A2983 RMK A01 T02900098  RH  030%=      5-min Rain = 0
KPG1 250248Z 00011KT 29/10 A2983 RMK A01 T02900097  RH  030%=      5-min Rain = 0
KPG1 250249Z 36013KT 29/10 A2983 RMK A01 T02900097  RH  030%=      5-min Rain = 0
KPG1 250250Z 01012KT 29/10 A2983 RMK A01 T02900096  RH  030%=      5-min Rain = 0
KPG1 250251Z 01013KT 29/10 A2983 RMK A01 T02890095  RH  030%=      5-min Rain = 0
KPG1 250252Z 01011KT 29/10 A2983 RMK A01 T02900095  RH  030%=      5-min Rain = 0
KPG1 250253Z 01011KT 29/10 A2983 RMK A01 T02900095  RH  030%=      5-min Rain = 0
KPG1 250254Z 00013KT 29/10 A2983 RMK A01 T02890095  RH  030%=      5-min Rain = 0
KPG1 250255Z 01012KT 29/10 A2983 RMK A01 T02890095  RH  030%=      5-min Rain = 0
KPG1 250256Z 01012KT 29/10 A2983 RMK A01 T02890095  RH  030%=      5-min Rain = 0
KPG1 250257Z 01011KT 29/10 A2983 RMK A01 T02890095  RH  030%=      5-min Rain = 0
KPG1 250258Z 01012KT 29/10 A2984 RMK A01 T02880096  RH  030%=      5-min Rain = 0
KPG1 250259Z 01013KT 29/10 A2984 RMK A01 T02880096  RH  030%=      5-min Rain = 0
KPG1 250300Z 01012KT 29/10 A2984 RMK A01 T02880098  RH  030%=      5-min Rain = 0
KPG1 250301Z 01013KT 29/10 A2984 RMK A01 T02870098  RH  031%=      5-min Rain = 0
KPG1 250302Z 01013KT 29/10 A2984 RMK A01 T02870099  RH  031%=      5-min Rain = 0
KPG1 250303Z 01013KT 29/10 A2984 RMK A01 T02860100  RH  031%=      5-min Rain = 0
KPG1 250304Z 01014KT 29/10 A2984 RMK A01 T02860100  RH  031%=      5-min Rain = 0
KPG1 250305Z 01014KT 29/10 A2984 RMK A01 T02850100  RH  032%=      5-min Rain = 0
KPG1 250306Z 00015KT 29/10 A2984 RMK A01 T02850101  RH  032%=      5-min Rain = 0
KPG1 250307Z 01014KT 29/10 A2984 RMK A01 T02850100  RH  032%=      5-min Rain = 0
KPG1 250308Z 01015KT 29/10 A2984 RMK A01 T02850099  RH  031%=      5-min Rain = 0
KPG1 250309Z 01014KT 29/10 A2984 RMK A01 T02850100  RH  032%=      5-min Rain = 0
KPG1 250310Z 01013KT 29/10 A2984 RMK A01 T02850101  RH  032%=      5-min Rain = 0
KPG1 250311Z 02015KT 28/10 A2984 RMK A01 T02840102  RH  032%=      5-min Rain = 0
KPG1 250312Z 02015KT 28/10 A2984 RMK A01 T02840103  RH  032%=      5-min Rain = 0
KPG1 250313Z 03018KT 28/10 A2985 RMK A01 T02830104  RH  033%=      5-min Rain = 0
KPG1 250314Z 01018KT 28/10 A2985 RMK A01 T02820104  RH  033%=      5-min Rain = 0
KPG1 250315Z 01016KT 28/10 A2985 RMK A01 T02810104  RH  033%=      5-min Rain = 0
KPG1 250316Z 02015KT 28/11 A2985 RMK A01 T02810105  RH  033%=      5-min Rain = 0
KPG1 250317Z 01018KT 28/11 A2985 RMK A01 T02800106  RH  034%=      5-min Rain = 0
KPG1 250318Z 01017KT 28/11 A2985 RMK A01 T02790106  RH  034%=      5-min Rain = 0
KPG1 250319Z 00016KT 28/11 A2985 RMK A01 T02800106  RH  034%=      5-min Rain = 0
KPG1 250320Z 01018KT 28/11 A2985 RMK A01 T02790106  RH  034%=      5-min Rain = 0
KPG1 250321Z 01018KT 28/11 A2985 RMK A01 T02790105  RH  034%=      5-min Rain = 0
KPG1 250322Z 01017KT 28/11 A2986 RMK A01 T02800106  RH  034%=      5-min Rain = 0
KPG1 250323Z 01016G21KT 28/11 A2986 RMK A01 T02790107  RH  034%=      5-min Rain = 0
KPG1 250324Z 01018KT 28/11 A2986 RMK A01 T02780107  RH  034%=      5-min Rain = 0
KPG1 250325Z 02016KT 28/11 A2986 RMK A01 T02770107  RH  035%=      5-min Rain = 0
KPG1 250326Z 01016KT 28/11 A2986 RMK A01 T02760108  RH  035%=      5-min Rain = 0
KPG1 250327Z 01016KT 28/11 A2986 RMK A01 T02750107  RH  035%=      5-min Rain = 0
KPG1 250328Z 00019KT 28/11 A2986 RMK A01 T02750107  RH  035%=      5-min Rain = 0
KPG1 250329Z 01017KT 28/11 A2987 RMK A01 T02750107  RH  035%=      5-min Rain = 0
KPG1 250330Z 02018KT 28/11 A2987 RMK A01 T02760106  RH  035%=      5-min Rain = 0
KPG1 250331Z 03016KT 28/11 A2987 RMK A01 T02760106  RH  035%=      5-min Rain = 0
KPG1 250332Z 03014KT 28/11 A2987 RMK A01 T02760108  RH  035%=      5-min Rain = 0
KPG1 250333Z 03014KT 28/11 A2987 RMK A01 T02750108  RH  035%=      5-min Rain = 0
KPG1 250334Z 03014KT 27/11 A2987 RMK A01 T02730108  RH  036%=      5-min Rain = 0
KPG1 250335Z 02014KT 27/11 A2987 RMK A01 T02720108  RH  036%=      5-min Rain = 0
KPG1 250336Z 02015KT 27/11 A2988 RMK A01 T02720109  RH  036%=      5-min Rain = 0
KPG1 250337Z 02015KT 27/11 A2988 RMK A01 T02710108  RH  036%=      5-min Rain = 0
KPG1 250338Z 02015KT 27/11 A2988 RMK A01 T02710108  RH  036%=      5-min Rain = 0
KPG1 250339Z 02015KT 27/11 A2988 RMK A01 T02720108  RH  036%=      5-min Rain = 0
KPG1 250340Z 02015KT 27/11 A2988 RMK A01 T02720109  RH  036%=      5-min Rain = 0
KPG1 250341Z 02014KT 27/11 A2988 RMK A01 T02720109  RH  036%=      5-min Rain = 0
KPG1 250342Z 02015KT 27/11 A2988 RMK A01 T02710109  RH  036%=      5-min Rain = 0
KPG1 250343Z 02015KT 27/11 A2988 RMK A01 T02710109  RH  036%=      5-min Rain = 0
KPG1 250344Z 02016KT 27/11 A2988 RMK A01 T02710110  RH  036%=      5-min Rain = 0
KPG1 250345Z 01015KT 27/11 A2988 RMK A01 T02710110  RH  037%=      5-min Rain = 0
KPG1 250346Z 02016KT 27/11 A2988 RMK A01 T02710111  RH  037%=      5-min Rain = 0
KPG1 250347Z 02017KT 27/11 A2988 RMK A01 T02710111  RH  037%=      5-min Rain = 0
KPG1 250348Z 02017KT 27/11 A2989 RMK A01 T02710113  RH  037%=      5-min Rain = 0
KPG1 250349Z 02017KT 27/11 A2989 RMK A01 T02720114  RH  037%=      5-min Rain = 0
KPG1 250350Z 02018KT 27/11 A2989 RMK A01 T02720114  RH  037%=      5-min Rain = 0
KPG1 250351Z 02018KT 27/12 A2989 RMK A01 T02720115  RH  038%=      5-min Rain = 0
KPG1 250352Z 02017KT 27/12 A2989 RMK A01 T02710116  RH  038%=      5-min Rain = 0
KPG1 250353Z 03017KT 27/12 A2989 RMK A01 T02710119  RH  039%=      5-min Rain = 0
KPG1 250354Z 03018G23KT 27/12 A299 RMK A01 T02710124  RH  040%=      5-min Rain = 0
KPG1 250355Z 03017KT 27/12 A299 RMK A01 T02710124  RH  040%=      5-min Rain = 0
KPG1 250356Z 03020KT 27/13 A299 RMK A01 T02700127  RH  041%=      5-min Rain = 0
KPG1 250357Z 04020G27KT 27/13 A299 RMK A01 T02700131  RH  042%=      5-min Rain = 0
KPG1 250358Z 04021G26KT 27/14 A299 RMK A01 T02700142  RH  045%=      5-min Rain = 0
KPG1 250359Z 03024G29KT 27/16 A2991 RMK A01 T02680160  RH  052%=      5-min Rain = 0
KPG1 250400Z 03028KT 27/18 A2991 RMK A01 T02650183  RH  061%=      5-min Rain = 0
KPG1 250401Z 04028G33KT 26/19 A2991 RMK A01 T02620194  RH  066%=      5-min Rain = 0
KPG1 250402Z 04029KT 26/20 A2991 RMK A01 T02600200  RH  069%=      5-min Rain = 0
KPG1 250403Z 03026G35KT 26/20 A2991 RMK A01 T02590203  RH  071%=      5-min Rain = 0
KPG1 250404Z 03026G33KT 26/21 A2991 RMK A01 T02580206  RH  073%=      5-min Rain = 0
KPG1 250405Z 04026G33KT 26/21 A2991 RMK A01 T02560208  RH  075%=      5-min Rain = 0
KPG1 250406Z 04024KT 26/21 A2991 RMK A01 T02550208  RH  075%=      5-min Rain = 0
KPG1 250407Z 03027G33KT 25/21 A2991 RMK A01 T02540209  RH  076%=      5-min Rain = 0
KPG1 250408Z 03029G34KT 25/21 A2991 RMK A01 T02530208  RH  076%=      5-min Rain = 0
KPG1 250409Z 04029KT 25/21 A2991 RMK A01 T02520207  RH  076%=      5-min Rain = 0
KPG1 250410Z 04026KT 25/21 A2992 RMK A01 T02500207  RH  077%=      5-min Rain = 0
KPG1 250411Z 04026G31KT 25/21 A2992 RMK A01 T02490207  RH  077%=      5-min Rain = 0
KPG1 250412Z 04025G30KT 25/21 A2992 RMK A01 T02490206  RH  077%=      5-min Rain = 0
KPG1 250413Z 04025G33KT 25/21 A2992 RMK A01 T02490206  RH  077%=      5-min Rain = 0
KPG1 250414Z 04032KT 25/21 A2992 RMK A01 T02480205  RH  077%=      5-min Rain = 0
KPG1 250415Z 04031G36KT 25/20 A2992 RMK A01 T02460203  RH  077%=      5-min Rain = 0
KPG1 250416Z 03029G36KT 25/20 A2992 RMK A01 T02450201  RH  077%=      5-min Rain = 0
KPG1 250417Z 04027KT 24/20 A2992 RMK A01 T02440200  RH  077%=      5-min Rain = 0
KPG1 250418Z 04028KT 24/20 A2992 RMK A01 T02430200  RH  077%=      5-min Rain = 0
KPG1 250419Z 03028G35KT 24/20 A2992 RMK A01 T02430199  RH  077%=      5-min Rain = 0
KPG1 250420Z 03026G31KT 24/20 A2992 RMK A01 T02420199  RH  077%=      5-min Rain = 0
KPG1 250421Z 03029G35KT 24/20 A2992 RMK A01 T02420199  RH  077%=      5-min Rain = 0
KPG1 250422Z 03028G33KT 24/20 A2992 RMK A01 T02420198  RH  077%=      5-min Rain = 0
KPG1 250423Z 04027G34KT 24/20 A2992 RMK A01 T02410198  RH  077%=      5-min Rain = 0
KPG1 250424Z 03026G33KT 24/20 A2992 RMK A01 T02410198  RH  077%=      5-min Rain = 0
KPG1 250425Z 04029G34KT 24/20 A2993 RMK A01 T02400198  RH  077%=      5-min Rain = 0
KPG1 250426Z 04029KT 24/20 A2993 RMK A01 T02400198  RH  077%=      5-min Rain = 0
KPG1 250427Z 04027G33KT 24/20 A2993 RMK A01 T02400198  RH  077%=      5-min Rain = 0
KPG1 250428Z 03029KT 24/20 A2993 RMK A01 T02400197  RH  077%=      5-min Rain = 0
KPG1 250429Z 03026KT 24/20 A2993 RMK A01 T02400198  RH  077%=      5-min Rain = 0
KPG1 250430Z 03026KT 24/20 A2993 RMK A01 T02400198  RH  077%=      5-min Rain = 0
KPG1 250431Z 03024G29KT 24/20 A2993 RMK A01 T02400197  RH  077%=      5-min Rain = 0
KPG1 250432Z 04028KT 24/20 A2993 RMK A01 T02400197  RH  077%=      5-min Rain = 0
KPG1 250433Z 04028G33KT 24/20 A2993 RMK A01 T02400197  RH  077%=      5-min Rain = 0
KPG1 250434Z 04030KT 24/20 A2993 RMK A01 T02400197  RH  077%=      5-min Rain = 0
KPG1 250435Z 03032KT 24/20 A2993 RMK A01 T02400196  RH  077%=      5-min Rain = 0
KPG1 250436Z 04029KT 24/20 A2994 RMK A01 T02400196  RH  077%=      5-min Rain = 0
KPG1 250437Z 04028G33KT 24/20 A2994 RMK A01 T02390196  RH  077%=      5-min Rain = 0
KPG1 250438Z 04024G31KT 24/20 A2994 RMK A01 T02390196  RH  077%=      5-min Rain = 0
KPG1 250439Z 04031KT 24/20 A2994 RMK A01 T02390196  RH  077%=      5-min Rain = 0
KPG1 250440Z 04030KT 24/20 A2994 RMK A01 T02400197  RH  077%=      5-min Rain = 0
KPG1 250441Z 03030G36KT 24/20 A2994 RMK A01 T02390197  RH  077%=      5-min Rain = 0
KPG1 250442Z 03032G38KT 24/20 A2994 RMK A01 T02390197  RH  077%=      5-min Rain = 0
KPG1 250443Z 04028G35KT 24/20 A2994 RMK A01 T02390197  RH  077%=      5-min Rain = 0
KPG1 250444Z 04028G39KT 24/20 A2994 RMK A01 T02390197  RH  077%=      5-min Rain = 0
KPG1 250445Z 04027G35KT 24/20 A2994 RMK A01 T02390197  RH  077%=      5-min Rain = 0
KPG1 250446Z 03029G34KT 24/20 A2994 RMK A01 T02390197  RH  077%=      5-min Rain = 0
KPG1 250447Z 04027G35KT 24/20 A2994 RMK A01 T02390197  RH  077%=      5-min Rain = 0
KPG1 250448Z 03026G33KT 24/20 A2994 RMK A01 T02390197  RH  077%=      5-min Rain = 0
KPG1 250449Z 03027G34KT 24/20 A2994 RMK A01 T02390197  RH  077%=      5-min Rain = 0
KPG1 250450Z 03030KT 24/20 A2994 RMK A01 T02390196  RH  077%=      5-min Rain = 0
KPG1 250451Z 03032KT 24/20 A2994 RMK A01 T02390196  RH  077%=      5-min Rain = 0
KPG1 250452Z 03027G34KT 24/20 A2995 RMK A01 T02390197  RH  077%=      5-min Rain = 0
KPG1 250453Z 03029G37KT 24/20 A2995 RMK A01 T02390197  RH  077%=      5-min Rain = 0
KPG1 250454Z 03030G38KT 24/20 A2995 RMK A01 T02390197  RH  077%=      5-min Rain = 0
KPG1 250455Z 03028KT 24/20 A2995 RMK A01 T02390197  RH  077%=      5-min Rain = 0
KPG1 250456Z 03028G33KT 24/20 A2995 RMK A01 T02390196  RH  077%=      5-min Rain = 0
KPG1 250457Z 03026G36KT 24/20 A2995 RMK A01 T02390197  RH  077%=      5-min Rain = 0
KPG1 250458Z 03024G31KT 24/20 A2995 RMK A01 T02390197  RH  077%=      5-min Rain = 0
KPG1 250459Z 04031KT 24/20 A2995 RMK A01 T02390197  RH  077%=      5-min Rain = 0

Page generated in 0.1457 seconds.